Event Mercenaries, Inc.

2015 Asheville Chamber Challenge

Overall Finish List

June 05, 2015


Results by Event Mercenaries, Inc.

5K Run

Place Name COMPANY Bib No Age Gender Age Group Chip Time Gun Time Pace
1 Javan Lapp Pisgah Legal 1339 27 M 1 Open 17:19.8 17:19.8 5:34/M
2 Jared Smith HomeTrust Bank 544 31 M 2 Open 17:42.4 17:42.4 5:41/M
3 Cade Wooten Dungan, Kilbourne & Stahl, P.A 384 15 M 3 Open 17:48.2 17:49.4 5:43/M
4 Victor McHenry Mission 755 30 M 1 30-34 17:59.0 17:59.0 5:47/M
5 Matt Popowski Asheville Area Chamber of Comm 11 30 M 2 30-34 18:09.0 18:10.1 5:50/M
6 Ricky Babaoff HomeTrust Bank 541 37 M 1 35-39 18:10.4 18:10.4 5:50/M
7 Jay Curwen Jus' Running 703 48 M 1 45-49 18:21.2 18:21.2 5:54/M
8 Cory Donohue HomeTrust Bank 542 29 M 1 25-29 18:30.5 18:30.5 5:57/M
9 Pw Chen Mission 753 34 M 3 30-34 18:32.1 18:32.6 5:58/M
10 Garrett Ruley The Grand Bohemian Hotel 1007 19 M 1 15-19 18:42.2 18:42.2 6:01/M
11 Jonathan Erickson Park Ridge Health 890 37 M 2 35-39 18:45.7 18:46.7 6:02/M
12 Joel Johnson Asheville Area Habitat for Hum 18 41 M 1 40-44 18:55.6 18:55.6 6:05/M
13 Lee Plamann Blue Ridge Bone & Joint Clinic 160 28 M 2 25-29 19:14.9 19:15.5 6:11/M
14 Andy Brouwer Borgwarner Asheville 189 33 M 4 30-34 19:16.0 19:16.1 6:12/M
15 Kevin Conrecode Festiva Development Group 1130 25 M 3 25-29 19:17.9 19:18.0 6:12/M
16 Anne Wheatly Jus' Running 708 30 F 1 Open 19:35.0 19:35.2 6:18/M
17 Laurentieu Costache Biltmore Estate / The Biltmore 89 38 M 3 35-39 19:37.7 19:39.2 6:18/M
18 Todd Swift Thermo Fisher Scientific 1024 45 M 2 45-49 19:47.0 19:47.6 6:22/M
19 Josh Cree Asheville VA Medical Center 58 41 M 2 40-44 19:51.2 19:51.5 6:23/M
20 Matt Roane The Laurels of Greentree Ridge 1020 44 M 3 40-44 19:51.5 19:51.5 6:23/M
21 Kevin Liska Eaton Corporation 398 35 M 4 35-39 19:54.4 30:34.0 6:24/M
22 Kerby Smithson City of Asheville 292 32 M 5 30-34 20:05.0 20:08.0 6:27/M
23 Eric Edgerton 1363 27 M 4 25-29 20:05.8 20:12.6 6:27/M
24 Max Boswell Buncombe County 206 43 M 4 40-44 20:11.9 20:11.9 6:29/M
25 Todd Burkhalter Jus' Running 701 42 M 5 40-44 20:15.2 20:15.2 6:31/M
26 Bob Fay City of Asheville 239 54 M 1 50-54 20:20.2 20:20.2 6:32/M
27 Samantha Simonson YMCA of WNC 1083 25 F 2 Open 20:35.8 20:36.8 6:37/M
28 Seth Bishop Johnson Price Sprinkle PA 641 25 M 5 25-29 20:38.5 28:11.5 6:38/M
29 Tyler Gobin J.Crew 618 22 M 1 20-24 20:44.9 20:47.7 6:40/M
30 Jeff Provenzano 1169 41 M 6 40-44 20:45.5 20:45.5 6:40/M
31 Stephen Powers 1167 54 M 2 50-54 20:45.8 20:45.8 6:40/M
32 Aaron Vaughan Mountain Area Health Education 840 32 M 6 30-34 20:46.3 20:46.3 6:41/M
33 Katie Nowak Thermo Fisher Scientific 1023 28 F 3 Open 20:52.3 20:53.7 6:43/M
34 Brian Carlinnia Jus' Running 702 44 M 7 40-44 20:55.3 20:56.7 6:44/M
35 Kasey Briggs Mountain Area Health Education 834 21 F 1 20-24 20:59.1 21:06.6 6:45/M
36 Ginna Reid Jus' Running 706 37 F 1 35-39 21:10.9 21:10.9 6:48/M
37 James Thompson 1353 31 M 7 30-34 21:11.9 21:12.1 6:49/M
38 Tait Piercy Blue Ridge Bone & Joint Clinic 159 22 M 2 20-24 21:16.6 21:18.6 6:50/M
39 Kim Sweetland BorgWarner 184 41 F 1 40-44 21:16.8 21:16.8 6:50/M
40 Nelson Roberts Biltmore Estate / The Biltmore 91 35 M 5 35-39 21:24.5 21:27.4 6:53/M
41 John White City of Asheville 244 45 M 3 45-49 21:26.7 21:35.7 6:54/M
42 Ashley Strobel Mission 756 32 F 1 30-34 21:28.3 21:29.8 6:54/M
43 Taylor Dalton Borgwarner Asheville 185 28 M 6 25-29 21:32.8 21:51.6 6:55/M
44 Chris Van Dyke Jus' Running 704 46 M 4 45-49 21:33.3 21:34.5 6:56/M
45 Steve Linton Deltec Homes 343 38 M 6 35-39 21:36.1 21:43.7 6:57/M
46 Will Smith Dixon Hughes Goodman LLP 348 32 M 8 30-34 21:37.7 21:37.7 6:57/M
47 Charles Rivera Eaton Corporation 400 29 M 7 25-29 21:39.0 21:39.2 6:58/M
48 Mark Harris 1311 44 M 8 40-44 21:43.2 21:45.9 6:59/M
49 Claire Bartholic Jus' Running 705 37 F 2 35-39 21:50.5 21:50.9 7:01/M
50 Nathan Rhodes 1348 39 M 7 35-39 21:51.0 21:55.4 7:02/M
51 Eric Oelschlaeger Epsilon, Inc. 432 35 M 8 35-39 21:54.1 22:11.9 7:03/M
52 Demeseh Cobb genova diagnostics 517 43 M 9 40-44 21:57.8 22:00.5 7:03/M
53 Todd Gothberg Park Ridge Health 892 50 M 3 50-54 22:10.7 22:11.1 7:08/M
54 Erin Goodrum Biltmore Estate / The Biltmore 127 28 M 8 25-29 22:19.8 22:21.2 7:11/M
55 Keaton Edwards G/M Property Group, LLC 482 35 M 9 35-39 22:23.2 22:23.2 7:12/M
56 Ben Catt FLS Energy 465 35 M 10 35-39 22:23.7 22:53.1 7:12/M
57 Kelly Whitlock City of Asheville 297 39 F 3 35-39 22:25.9 22:27.9 7:12/M
58 Todd Claussen Navitat Canopy Adventures 1262 34 M 9 30-34 22:27.0 22:36.1 7:13/M
59 Joe Lordi Grove Stone & Sand - Team #2 530 34 M 10 30-34 22:27.7 22:35.0 7:13/M
60 Jody Smith 1318 50 F 1 50-54 22:28.8 22:30.4 7:13/M
61 Doug Erber Borgwarner Asheville 190 38 M 11 35-39 22:30.9 22:33.5 7:14/M
62 Miller Stephanides YMCA of WNC 1084 23 F 2 20-24 22:31.0 22:32.9 7:14/M
63 Alan Kelly Borgwarner Asheville 200 47 M 5 45-49 22:33.1 23:07.1 7:15/M
64 Greg Ness FLS Energy 460 37 M 12 35-39 22:34.2 22:45.2 7:15/M
65 Luke Haynes NTCA-The Rural Broadband Assoc 871 27 M 9 25-29 22:34.5 22:46.1 7:15/M
66 Matt Sharpe Deerfield Episcopal Retirement 330 31 M 11 30-34 22:36.2 22:40.3 7:16/M
67 Erin Wilson Pisgah Legal 1337 39 M 13 35-39 22:36.3 22:39.4 7:16/M
68 Brian Ahn FLS Energy 461 37 M 14 35-39 22:38.2 22:50.8 7:17/M
69 Dylan Burt Navitat Canopy Adventures 1261 32 M 12 30-34 22:39.1 22:48.2 7:17/M
70 Scott Hardin-Nieri MountainTrue 866 44 M 10 40-44 22:44.7 22:51.8 7:19/M
71 Brendan Kelley City of Asheville 240 27 M 10 25-29 22:47.5 22:51.1 7:20/M
72 Joe Sorrells City of Asheville 231 39 M 15 35-39 22:53.1 22:56.1 7:21/M
73 Joshua Bringle Asheville VA Medical Center 57 38 M 16 35-39 23:05.6 23:08.1 7:25/M
74 Jason Huff genova diagnostics 514 42 M 11 40-44 23:07.4 23:11.3 7:26/M
75 Andrew Zehr Asheville Savings Bank 48 23 M 3 20-24 23:07.6 23:12.3 7:26/M
76 Thomas Calhoun G/M Property Group, LLC 481 38 M 17 35-39 23:08.6 24:22.5 7:26/M
77 John Luckett The Grand Bohemian Hotel 996 46 M 6 45-49 23:09.5 23:14.3 7:27/M
78 Gaither Pilos Narron Johnson Price Sprinkle PA 694 19 M 2 15-19 23:10.7 23:13.7 7:27/M
79 Lauren Groome Mountain Area Health Education 839 32 F 2 30-34 23:11.2 23:21.1 7:27/M
80 Jordan Schwarz 1389 32 M 13 30-34 23:12.9 23:15.8 7:28/M
81 Marty Lange Borgwarner Asheville 191 27 M 11 25-29 23:13.0 23:14.9 7:28/M
82 Eric McDaniel HomeTrust Bank 543 44 M 12 40-44 23:15.5 23:18.8 7:29/M
83 Kevin Taylor City of Asheville 232 53 M 4 50-54 23:16.3 23:21.0 7:29/M
84 Shannon Jaquess Mission 754 29 F 1 25-29 23:16.6 23:18.5 7:29/M
85 Heath Morlok Doctor Directory 364 31 M 14 30-34 23:21.9 23:23.6 7:30/M
86 Devin Kelly Asheville VA Medical Center 63 37 M 18 35-39 23:25.2 23:27.4 7:32/M
87 Jeremy Walters Asheville VA Medical Center 60 36 M 19 35-39 23:28.9 23:31.5 7:33/M
88 Eric Newman The Electronic Office 1161 16 M 3 15-19 23:31.3 24:14.3 7:34/M
89 Bob Wagner MountainTrue 868 52 M 5 50-54 23:36.4 23:41.4 7:35/M
90 Vaidila Satvika City of Asheville 291 40 M 13 40-44 23:42.4 23:45.5 7:37/M
91 Joseph McGowin Asheville VA Medical Center 64 42 M 14 40-44 23:44.1 23:45.2 7:38/M
92 Jim Abbott genova diagnostics 513 49 M 7 45-49 23:49.3 23:57.0 7:39/M
93 Jen Johnson Luella's Bar-B-Que 1230 41 F 2 40-44 23:50.6 24:04.4 7:40/M
94 Jarrett McGinnis 1370 31 M 15 30-34 23:54.1 24:13.4 7:41/M
95 Dennis Patenotte Zealandia Capital, Inc. 1088 40 M 15 40-44 23:54.2 23:54.2 7:41/M
96 Andy Willhide Luella's Bar-B-Que 1236 27 M 12 25-29 23:54.3 24:04.3 7:41/M
97 Adam Partridge Doctor Directory 375 35 M 20 35-39 23:54.6 24:02.5 7:41/M
98 Zeke Goldstein 1295 14 M 1 10-14 23:55.0 23:58.0 7:41/M
99 Rob Birchfield YMCA of WNC 1081 30 M 16 30-34 23:55.9 23:58.7 7:41/M
100 Rita White First Citizens Bank 455 42 F 3 40-44 23:57.7 24:02.4 7:42/M
 
Place Name COMPANY Bib No Age Gender Age Group Chip Time Gun Time Pace
101 Curtis Williams Asheville Citizen-Times Publis 28 37 M 21 35-39 23:59.4 24:00.7 7:43/M
102 Seth Temple Borgwarner Asheville 192 39 M 22 35-39 24:00.2 24:02.6 7:43/M
103 Beth Daniel 1324 31 F 3 30-34 24:01.8 24:05.8 7:43/M
104 Valerie Patenotte Zealandia Capital, Inc. 1100 31 F 4 30-34 24:06.0 24:35.4 7:45/M
105 Michael McCracken Zealandia Capital, Inc. 1087 25 M 13 25-29 24:08.5 24:17.2 7:46/M
106 Robert Stenhouse BCDHHS 88 44 M 16 40-44 24:09.6 24:40.8 7:46/M
107 Dorothy Irwin 1355 24 F 3 20-24 24:10.4 24:12.7 7:46/M
108 Mike Carew The Grand Bohemian Hotel 1014 0 M 1 0- 0 24:10.5 24:14.2 7:46/M
109 Steven Horton Johnson Price Sprinkle PA 655 32 M 17 30-34 24:10.8 28:38.4 7:46/M
110 Sarah Ellis 1386 26 F 2 25-29 24:11.6 24:45.8 7:47/M
111 Sam Fontaine United Way of Asheville & Bunc 1038 23 M 4 20-24 24:13.3 24:40.0 7:47/M
112 Derek Allen Ward and Smith, P.A. 1041 44 M 17 40-44 24:14.9 24:21.1 7:48/M
113 Daniel Summerlin G/M Property Group, LLC 484 45 M 8 45-49 24:20.0 24:28.2 7:49/M
114 Becky Upham Doctor Directory 360 46 F 1 45-49 24:21.4 24:26.9 7:50/M
115 Henry Rivera Eaton Corporation 387 27 M 14 25-29 24:21.7 24:26.9 7:50/M
116 Mike Piercy 1317 61 M 1 60-64 24:21.9 24:26.4 7:50/M
117 Robert McCormac YMCA of Western North Carolina 1280 17 M 4 15-19 24:27.1 24:29.7 7:52/M
118 Jesse Hyder YMCA of WNC 1082 32 M 18 30-34 24:27.5 24:30.0 7:52/M
119 Thoreau Kilbourne Dungan, Kilbourne & Stahl, P.A 383 14 M 2 10-14 24:29.7 24:31.6 7:52/M
120 Jason Capps Asheville Savings Bank 45 23 M 5 20-24 24:31.4 24:32.0 7:53/M
121 Tony McDowell City of Asheville 295 47 M 9 45-49 24:32.6 24:36.5 7:53/M
122 Sarah Ruthenburg Park Ridge Health 895 27 F 3 25-29 24:37.5 25:07.6 7:55/M
123 Jason Pierson genova diagnostics 520 36 M 23 35-39 24:43.0 24:47.0 7:57/M
124 James Vogel YMCA of Western North Carolina 1079 45 M 10 45-49 24:45.5 24:46.6 7:57/M
125 Alex Woodhouse United Way of Asheville & Bunc 1040 25 F 4 25-29 24:45.6 25:12.1 7:57/M
126 Neil Drendel Asheville Citizen-Times Publis 26 33 M 19 30-34 24:47.4 24:49.2 7:58/M
127 Leah Herity MAHEC 1285 39 F 4 35-39 24:48.9 24:59.2 7:58/M
128 Alston Ludwig McGuire, Wood & Bissette, PA 751 31 M 20 30-34 24:50.7 25:06.0 7:59/M
129 W Scott Jones Cloninger, Barbour, Searson, & 314 50 M 6 50-54 24:51.7 25:00.9 7:59/M
130 Buddy Tignor Haywood Community College 540 47 M 11 45-49 24:51.9 25:16.7 7:59/M
131 Patrick Brooks The Grand Bohemian Hotel 993 24 M 6 20-24 24:56.2 25:00.7 8:01/M
132 Dave Ledger Borgwarner Asheville 194 42 M 18 40-44 25:00.2 25:08.4 8:02/M
133 Scott Munker J.Crew 620 53 M 7 50-54 25:04.6 25:08.3 8:04/M
134 Chris Newman Eaton Corporation 399 29 M 15 25-29 25:09.4 25:14.5 8:05/M
135 Stephen Lorenz PBI INC 901 29 M 16 25-29 25:09.8 25:18.8 8:05/M
136 Anna Beth Parlier Mountain Area Health Education 798 24 F 4 20-24 25:10.3 25:16.5 8:06/M
137 Chris Brunton NTCA-The Rural Broadband Assoc 881 28 M 17 25-29 25:10.5 25:18.4 8:06/M
138 Victor Dostrow Asheville VA Medical Center 59 56 M 1 55-59 25:10.7 25:12.6 8:06/M
139 Jessica Bernstein City of Asheville 290 37 F 5 35-39 25:16.6 25:20.4 8:07/M
140 Christian Longacre Borgwarner Asheville 195 26 M 18 25-29 25:17.3 25:50.6 8:08/M
141 Jeff Birenbaum Eaton Corporation 386 23 M 7 20-24 25:19.6 25:25.0 8:08/M
142 Jacob Gray McGill Associates 741 24 M 8 20-24 25:20.7 25:51.5 8:09/M
143 Michael Steffin Eaton Corporation 396 33 M 21 30-34 25:23.3 25:27.7 8:10/M
144 Chris Bruchs 1372 32 M 22 30-34 25:23.9 26:06.7 8:10/M
145 Gail King Biltmore Estate / The Biltmore 105 41 F 4 40-44 25:27.5 25:35.9 8:11/M
146 Brian Lewis BCDHHS 85 37 M 24 35-39 25:32.1 26:26.8 8:13/M
147 Dustin Rickels Eaton Corporation 412 32 M 23 30-34 25:32.9 25:38.8 8:13/M
148 Norman Leonard Ward and Smith, P.A. 1047 39 M 25 35-39 25:33.8 27:07.3 8:13/M
149 Joel Osgood Asheville Humane Society 36 36 M 26 35-39 25:35.3 26:13.0 8:14/M
150 Elizabeth Mitchell YMCA of Western North Carolina 1077 50 F 2 50-54 25:38.2 25:43.3 8:15/M
151 Christopher De Beer Asheville VA Medical Center 62 39 M 27 35-39 25:39.3 25:49.8 8:15/M
152 Elliot Spengler Luella's Bar-B-Que 1235 26 M 19 25-29 25:41.7 25:53.1 8:15/M
153 Ronilo Telles Eaton Corporation 407 44 M 19 40-44 25:42.5 25:48.6 8:16/M
154 Dan Puryear BB&T (Branch Banking & Trust C 82 42 M 20 40-44 25:45.0 26:18.8 8:17/M
155 Matt Davenport Ward and Smith, P.A. 1042 29 M 20 25-29 25:45.2 26:50.8 8:17/M
156 Lukas Wehrli Eaton Corporation 1194 15 M 5 15-19 25:46.7 26:53.5 8:17/M
157 Michael Goebel Blue Ridge Bone & Joint Clinic 166 49 M 12 45-49 25:52.1 26:01.6 8:19/M
158 Chris Wiener YMCA of Western North Carolina 1075 33 M 24 30-34 25:53.3 26:00.5 8:19/M
159 Jimmy Justice J.Crew 613 40 M 21 40-44 25:54.9 26:03.2 8:20/M
160 Eric Zickerman Asheville Mall 44 39 M 28 35-39 25:55.6 26:08.3 8:20/M
161 Clark Duncan Asheville Area Chamber of Comm 9 44 M 22 40-44 25:56.8 26:16.9 8:20/M
162 Kris Kjellquist Asheville Area Habitat for Hum 1287 40 M 23 40-44 25:58.3 26:28.8 8:21/M
163 Holly Martin DixonPacifica Real Estate 355 41 F 5 40-44 25:59.0 26:03.7 8:21/M
164 Josh Wexler Doctor Directory 380 29 M 21 25-29 26:00.3 26:03.7 8:22/M
165 Brandon Murry French Broad Chocolates 479 28 M 22 25-29 26:01.9 27:20.4 8:22/M
166 Amanda Bazan Asheville VA Medical Center 61 33 F 5 30-34 26:05.3 26:09.5 8:23/M
167 Tim Splain 1181 52 M 8 50-54 26:05.3 26:20.1 8:23/M
168 Alex Green Mountain Area Health Education 838 23 M 9 20-24 26:09.3 26:15.9 8:25/M
169 Julia Horrocks Pisgah Legal 1340 31 F 6 30-34 26:12.6 26:15.6 8:25/M
170 Leslie Carreiro City of Asheville 237 50 F 3 50-54 26:13.9 26:24.0 8:26/M
171 Brian Stevens BorgWarner 183 43 M 24 40-44 26:16.0 26:55.5 8:27/M
172 Elly Wells Insurance Service of Asheville 608 45 F 2 45-49 26:17.6 26:19.8 8:27/M
173 Bryan Fisher Insurance Service of Asheville 598 41 M 25 40-44 26:19.6 26:38.9 8:28/M
174 Zachary Smith Eaton Corporation 397 23 M 10 20-24 26:20.4 26:26.0 8:28/M
175 Allen Reese FLS Energy 1172 25 M 23 25-29 26:20.9 27:17.3 8:28/M
176 Anna Alsobrook MountainTrue 865 28 F 5 25-29 26:22.2 26:45.2 8:29/M
177 Jessica Johnston City of Asheville 265 32 F 7 30-34 26:23.1 27:05.7 8:29/M
178 Bill Hitch Mountain Area Health Education 846 37 M 29 35-39 26:23.8 26:38.8 8:29/M
179 Brian Dietrich 1270 44 M 26 40-44 26:27.9 26:47.0 8:30/M
180 Marty Caywood HomeTrust Bank 558 43 M 27 40-44 26:29.1 27:03.4 8:31/M
181 Brad Puffer Keller Williams 718 45 M 13 45-49 26:30.1 26:34.9 8:31/M
182 Bob Seigler Keller Williams 715 42 M 28 40-44 26:30.5 26:35.9 8:31/M
183 Kelly Allen Keller Williams 717 46 F 3 45-49 26:30.8 26:35.3 8:31/M
184 Mike Baldwin Epsilon, Inc. 429 43 M 29 40-44 26:30.9 26:49.2 8:31/M
185 Grant Lewis Navitat Canopy Adventures 1260 50 M 9 50-54 26:31.1 26:40.9 8:32/M
186 Jeff Stewart Keller Williams 719 39 M 30 35-39 26:31.4 26:35.2 8:32/M
187 Jared Rennie CICS-NC 222 28 M 24 25-29 26:33.8 26:38.7 8:32/M
188 Peter Hingson The Grand Bohemian Hotel 994 37 M 31 35-39 26:38.2 26:43.5 8:34/M
189 Everette Reid Johnson Price Sprinkle PA 678 36 M 32 35-39 26:42.9 26:57.4 8:35/M
190 Kelly Harrison Borgwarner Asheville 188 43 M 30 40-44 26:44.8 26:54.0 8:36/M
191 David Hardy APEX Brain Centers 1273 35 M 33 35-39 26:46.1 27:12.0 8:36/M
192 Rob Dysert Borgwarner Asheville 186 33 M 25 30-34 26:47.8 26:57.7 8:37/M
193 Paul Fetherston City of Asheville 294 49 M 14 45-49 26:49.3 26:56.2 8:37/M
194 Tripp Anderson Keith Hargrave Architects 1361 42 M 31 40-44 26:50.2 26:56.6 8:38/M
195 Dan Hrncir Eaton Corporation 402 49 M 15 45-49 26:50.9 27:38.0 8:38/M
196 Dale Freudenberger FLS Energy 466 48 M 16 45-49 26:51.1 27:20.3 8:38/M
197 Ian McDonald 1335 25 M 25 25-29 26:52.2 26:56.0 8:38/M
198 Greg Wilkie BB&T (Branch Banking & Trust C 80 50 M 10 50-54 26:52.3 27:07.4 8:38/M
199 Lance Martin Ward and Smith, P.A. 1044 44 M 32 40-44 26:53.6 27:07.7 8:39/M
200 Veronica Martinez The Grand Bohemian Hotel 1011 32 F 8 30-34 26:53.9 26:58.5 8:39/M
 
Place Name COMPANY Bib No Age Gender Age Group Chip Time Gun Time Pace
201 Paul Saenger Blue Ridge Bone & Joint Clinic 172 65 M 1 65-69 26:53.9 27:04.5 8:39/M
202 Jason Monstrola Asheville Area Chamber of Comm 10 34 M 26 30-34 26:55.1 27:03.8 8:39/M
203 Jeremy Holder Navitat Canopy Adventures 1259 28 M 26 25-29 26:55.9 27:04.8 8:39/M
204 Walter Diehl 1305 46 M 17 45-49 26:56.0 28:01.4 8:40/M
205 Jeff Sharp Continental 1176 57 M 2 55-59 26:57.3 27:14.2 8:40/M
206 Brad Searson Cloninger, Barbour, Searson, & 315 53 M 11 50-54 27:00.4 27:09.3 8:41/M
207 Culley Holderfield 1140 41 M 33 40-44 27:02.2 27:19.8 8:42/M
208 Ric Ledford City of Asheville 284 48 M 18 45-49 27:03.8 27:24.9 8:42/M
209 David Hayes BB&T (Branch Banking & Trust C 77 52 M 12 50-54 27:08.0 27:36.0 8:43/M
210 Stephanie Wallace Asheville Area Habitat for Hum 20 36 F 6 35-39 27:09.2 27:15.6 8:44/M
211 Sharon McIntyre Webb Insurance 1054 37 F 7 35-39 27:09.6 27:31.8 8:44/M
212 Adam Carter Thermo Fisher Scientific 1125 37 M 34 35-39 27:12.4 27:56.6 8:45/M
213 Rebecca Hoke City of Asheville 254 25 F 6 25-29 27:14.6 27:27.2 8:45/M
214 Sara Densberger Biltmore Estate / The Biltmore 121 21 F 5 20-24 27:15.6 27:25.2 8:46/M
215 Hayley Wells Ward and Smith, P.A. 1051 35 F 8 35-39 27:17.1 28:50.1 8:46/M
216 Dave Baylis Asheville Humane Society 34 36 M 35 35-39 27:17.6 27:56.0 8:46/M
217 Dede Rowe Mission Health 763 42 F 6 40-44 27:18.2 27:31.2 8:47/M
218 Maria Wood The Givens Estates. Inc. 988 44 F 7 40-44 27:18.8 27:18.8 8:47/M
219 Corynne Jones genova diagnostics 518 23 F 6 20-24 27:19.7 27:23.5 8:47/M
220 Bradley Hines First Citizens Bank 453 36 M 36 35-39 27:20.6 27:25.4 8:47/M
221 Ben Hamrick Johnson Price Sprinkle PA 645 57 M 3 55-59 27:20.6 27:41.1 8:47/M
222 Al Larson The Grand Bohemian Hotel 995 56 M 4 55-59 27:22.0 28:34.0 8:48/M
223 Jessie Hancock Blue Ridge Bone & Joint Clinic 170 30 F 9 30-34 27:23.2 27:35.2 8:48/M
224 Carol Fay Keith Hargrave Architects 1362 56 F 1 55-59 27:24.1 27:35.4 8:49/M
225 Zachary Weas Asheville Area Chamber of Comm 1192 13 M 3 10-14 27:25.6 27:39.9 8:49/M
226 Mel Waters The Givens Estates. Inc. 987 51 M 13 50-54 27:27.8 27:27.8 8:50/M
227 Sumaya El-Attar Asheville Area Habitat for Hum 17 49 F 4 45-49 27:28.0 27:34.4 8:50/M
228 Ryan Sheffield 1334 29 M 27 25-29 27:28.6 27:32.3 8:50/M
229 Rob Hamrick Johnson Price Sprinkle PA 651 53 M 14 50-54 27:28.9 27:48.6 8:50/M
230 Clint Cogburn 1129 24 M 11 20-24 27:29.8 27:37.4 8:50/M
231 Nathan Sabo 1320 36 M 37 35-39 27:30.5 27:36.0 8:51/M
232 John Webb Webb Insurance 1056 52 M 15 50-54 27:32.5 27:55.7 8:51/M
233 Matt Cooper The Grand Bohemian Hotel 1009 36 M 38 35-39 27:33.7 27:47.0 8:52/M
234 Gina Romine genova diagnostics 516 46 F 5 45-49 27:35.3 27:42.7 8:52/M
235 Charles Hume Eaton Corporation 391 48 M 19 45-49 27:35.6 30:29.8 8:52/M
236 Bill Smith Dixon Hughes Goodman LLP 347 60 M 2 60-64 27:36.6 27:51.9 8:52/M
237 Michael Smith Diamond Brand Outdoors 1283 32 M 27 30-34 27:36.9 27:45.1 8:52/M
238 Jesse Gustafson Sisters of Mercy Urgent Care, 959 28 M 28 25-29 27:38.2 27:40.7 8:53/M
239 Emma Goodrum Biltmore Estate / The Biltmore 126 12 F 1 10-14 27:39.6 27:50.7 8:53/M
240 Dan Hankley Blue Ridge Bone & Joint Clinic 162 48 M 20 45-49 27:39.7 27:58.5 8:53/M
241 Brandon Luther Mission Health System 777 28 M 29 25-29 27:40.0 27:51.2 8:54/M
242 Sarah Thornburg McGuire, Wood & Bissette, PA 752 46 F 6 45-49 27:41.3 27:56.6 8:54/M
243 John Toth Roberts & Stevens, PA 951 28 M 30 25-29 27:42.4 27:49.9 8:54/M
244 Jon Hixon Linamar 727 45 M 21 45-49 27:42.8 27:59.5 8:54/M
245 Ariane Kjellquist Asheville Area Habitat for Hum 23 41 F 8 40-44 27:42.9 28:14.8 8:54/M
246 Margarita Martinez Luella's Bar-B-Que 1234 27 F 7 25-29 27:45.6 27:59.0 8:55/M
247 Rachel Carlson Zealandia Capital, Inc. 1085 25 F 8 25-29 27:47.4 27:54.7 8:56/M
248 Micheal Shoffner Keller Williams 716 39 M 39 35-39 27:48.9 27:54.4 8:56/M
249 Sarah Gross City of Asheville 277 27 F 9 25-29 27:52.0 28:27.2 8:58/M
250 Scott Farkas The Givens Estates. Inc. 969 30 M 28 30-34 27:54.7 28:46.3 8:58/M
251 Marissa Jamison Biltmore Estate / The Biltmore 1223 33 F 10 30-34 27:57.6 28:34.3 8:59/M
252 Nona Workman Johnson Price Sprinkle PA 643 37 F 9 35-39 28:01.0 28:59.0 9:01/M
253 Heather Whitaker Goldstein 1291 43 F 9 40-44 28:01.4 28:27.0 9:01/M
254 Ben Many 1336 36 M 40 35-39 28:03.2 30:03.1 9:01/M
255 Dan George Borgwarner Asheville 193 34 M 29 30-34 28:04.0 28:22.3 9:01/M
256 Justin Steen MAHEC 1248 35 M 41 35-39 28:04.7 29:24.0 9:01/M
257 David Field NTCA-The Rural Broadband Assoc 883 30 M 30 30-34 28:04.8 28:12.9 9:01/M
258 Ben Hilinski Blue Ridge Bone & Joint Clinic 158 40 M 34 40-44 28:05.5 28:08.9 9:02/M
259 Steve Miller McGill Associates 746 44 M 35 40-44 28:05.9 28:22.8 9:02/M
260 Beau Watson AutoBell Car Wash 72 27 M 31 25-29 28:09.1 28:25.2 9:03/M
261 Caleb Brown AutoBell Car Wash 69 21 M 12 20-24 28:10.9 28:25.3 9:03/M
262 Susan Dietrich 1271 48 F 7 45-49 28:11.4 28:29.4 9:04/M
263 Julie Hutchinson Asheville VA Medical Center 66 34 F 11 30-34 28:12.3 28:30.3 9:04/M
264 Patrick Davis Eaton Corporation 385 29 M 32 25-29 28:12.4 28:17.9 9:04/M
265 Marla Petticrew The Grand Bohemian Hotel 1003 25 F 10 25-29 28:12.6 28:18.8 9:04/M
266 Erin Paparazzo BorgWarner 182 31 F 12 30-34 28:13.1 28:49.5 9:04/M
267 Mukunda Pacifici DixonPacifica Real Estate 356 42 M 36 40-44 28:14.0 28:21.4 9:05/M
268 Hank Gaston Grove Stone & Sand Company 533 30 M 31 30-34 28:14.2 28:22.0 9:05/M
269 Peyton Baer 1384 18 F 1 15-19 28:15.8 28:43.5 9:05/M
270 Dennis Duffy 1381 56 M 5 55-59 28:17.2 28:24.2 9:06/M
271 Michael Wolling First Bank 452 50 M 16 50-54 28:19.3 28:45.2 9:06/M
272 Carol Rogers Pisgah Legal 1338 60 F 1 60-64 28:20.0 28:23.4 9:07/M
273 Brent Douthit Zealandia Capital, Inc. 1086 30 M 32 30-34 28:20.5 29:09.6 9:07/M
274 Antonio Contreras Thermo Fisher Scientific 1021 39 M 42 35-39 28:20.6 29:03.5 9:07/M
275 Greg Hoffman McGill Associates 743 34 M 33 30-34 28:21.5 29:00.5 9:07/M
276 Redinger Jesse 1326 29 F 11 25-29 28:22.0 29:09.2 9:07/M
277 Kim Douglas Navitat Canopy Adventures 1257 32 F 13 30-34 28:26.1 28:36.0 9:09/M
278 Joyel Billits Biltmore Estate / The Biltmore 113 37 F 10 35-39 28:26.7 28:33.2 9:09/M
279 Charlie Cardella Eaton Corporation 405 37 M 43 35-39 28:27.2 29:13.3 9:09/M
280 Taylor Faust Navitat Canopy Adventures 1258 19 F 2 15-19 28:29.2 28:39.9 9:10/M
281 Efvan Zeiger Johnson Price Sprinkle PA 628 25 M 33 25-29 28:30.6 28:57.3 9:10/M
282 Joanne McCarthy 1313 53 F 4 50-54 28:32.2 29:34.8 9:10/M
283 Debbie Johnson 1323 40 F 10 40-44 28:34.1 28:45.4 9:11/M
284 Greyson Harris 1310 11 M 4 10-14 28:34.3 29:36.3 9:11/M
285 Lee Scott Biltmore Estate / The Biltmore 95 35 M 44 35-39 28:34.8 28:56.3 9:11/M
286 Christina Fumo i play 574 27 F 12 25-29 28:34.8 28:47.0 9:11/M
287 Shawn Babcock Mountain Physical Therapy 1116 41 M 37 40-44 28:37.8 29:33.6 9:12/M
288 Paul Baker HomeTrust Bank 557 42 M 38 40-44 28:38.7 28:54.4 9:12/M
289 Becky Covert Deltec Homes 337 39 F 11 35-39 28:42.0 28:53.6 9:14/M
290 Bethany Hodges Doctor Directory 363 33 F 14 30-34 28:44.6 29:04.2 9:14/M
291 Jaime Matthews City of Asheville 279 36 F 12 35-39 28:46.0 28:58.9 9:15/M
292 Dave Nelson Colton Groome & Company 324 38 M 45 35-39 28:47.0 28:56.7 9:15/M
293 Larissa Berberick Eaton Corporation 419 40 F 11 40-44 28:47.3 29:31.8 9:15/M
294 Dale Curriden 1301 45 M 22 45-49 28:49.7 29:49.5 9:16/M
295 Courtney Reynolds YMCA of Western North Carolina 1288 27 F 13 25-29 28:50.1 29:52.5 9:16/M
296 Benjamin Napper Mission Health 771 23 M 13 20-24 28:50.7 29:45.4 9:16/M
297 Julie Blanda Charlotte Street Computers 217 37 F 13 35-39 28:52.1 29:05.6 9:17/M
298 Crawford Rizor French Broad Chocolates 480 29 M 34 25-29 28:53.3 30:11.7 9:17/M
299 Joe Scully YMCA of Western North Carolina 1073 56 M 6 55-59 28:55.1 29:02.2 9:18/M
300 Thomaal Conyers Eaton Corporation 401 30 M 34 30-34 28:57.9 29:46.5 9:19/M
 
Place Name COMPANY Bib No Age Gender Age Group Chip Time Gun Time Pace
301 Jennie Ramsey Mountain BizWorks 860 29 F 14 25-29 28:58.9 29:16.3 9:19/M
302 David Fazzolare Ward and Smith, P.A. 1045 37 M 46 35-39 28:59.2 29:27.9 9:19/M
303 Zac Lamb Ward and Smith, P.A. 1046 34 M 35 30-34 28:59.6 29:28.0 9:19/M
304 Lori Diehl French Broad Chocolate Lounge 1269 43 F 12 40-44 29:00.2 29:07.2 9:19/M
305 Charles Faison Biltmore Estate / The Biltmore 149 31 M 36 30-34 29:01.5 29:59.2 9:20/M
306 Derall Twitty Eaton Corporation 408 26 M 35 25-29 29:05.2 29:11.3 9:21/M
307 Evan Cain Charlotte Street Computers 218 22 F 7 20-24 29:12.9 29:26.5 9:23/M
308 Timothy Bayless City of Asheville 241 27 M 36 25-29 29:13.1 29:26.7 9:24/M
309 Anthony Mitchell Insurance Service of Asheville 606 41 M 39 40-44 29:14.4 29:34.6 9:24/M
310 Tad Dixon DixonPacifica Real Estate 354 47 M 23 45-49 29:15.7 29:20.1 9:24/M
311 Adam Danielson GE Aviation 485 24 M 14 20-24 29:15.9 29:56.2 9:24/M
312 Nick Devore GE Aviation 487 32 M 37 30-34 29:17.2 30:04.6 9:25/M
313 Dallam Hart Deltec Homes 342 44 M 40 40-44 29:17.3 29:28.1 9:25/M
314 Tripp Weathers BB&T (Branch Banking & Trust C 79 35 M 47 35-39 29:19.3 30:02.9 9:26/M
315 Mary Clarissa Marshall Hard Exercise Works 1151 35 F 14 35-39 29:20.0 29:36.4 9:26/M
316 Salvatore Tringali i play 588 29 M 37 25-29 29:20.2 29:32.2 9:26/M
317 Terri Wells Deltec Homes 344 44 F 13 40-44 29:20.7 29:31.1 9:26/M
318 Patrick Doran Mountain BizWorks 858 43 M 41 40-44 29:21.1 29:38.0 9:26/M
319 Sherry Lamb genova diagnostics 515 37 F 15 35-39 29:21.2 29:48.7 9:26/M
320 Chris Foote Electronic Office 425 28 M 38 25-29 29:24.7 30:09.5 9:27/M
321 Scott Dinsmore City of Asheville 238 24 M 15 20-24 29:25.8 29:35.9 9:28/M
322 Rick Jackson McGuire, Wood & Bissette, PA 750 40 M 42 40-44 29:26.1 29:58.8 9:28/M
323 Tony Rathbone GE Aviation 490 37 M 48 35-39 29:26.7 30:14.7 9:28/M
324 Laura Weas Asheville Area Chamber of Comm 1191 45 F 8 45-49 29:27.1 29:40.7 9:28/M
325 Don Esposito Borgwarner Asheville 187 45 M 24 45-49 29:28.3 29:36.9 9:28/M
326 Joel Storrow McGill Associates 748 56 M 7 55-59 29:29.2 30:07.7 9:29/M
327 Jeremy Chaplin 1126 32 M 38 30-34 29:29.4 29:39.8 9:29/M
328 Neil Garson Asheville JCC 37 26 M 39 25-29 29:30.4 29:57.8 9:29/M
329 Sarah Sharpe NTCA-The Rural Broadband Assoc 880 28 F 15 25-29 29:30.5 30:43.7 9:29/M
330 Jessica Hauser The Laurels of Greentree Ridge 1018 30 F 15 30-34 29:33.0 30:37.1 9:30/M
331 Tige Hopper Webb Insurance 1053 37 M 49 35-39 29:33.6 29:55.9 9:30/M
332 Brenna Sheffield 1364 29 F 16 25-29 29:35.9 29:44.3 9:31/M
333 Jonathon McKay Biltmore Estate / The Biltmore 90 44 M 43 40-44 29:36.4 30:32.9 9:31/M
334 Joel Jackson Eaton Corporation 406 29 M 40 25-29 29:36.9 29:43.5 9:31/M
335 Neal Ward Asheville Savings Bank 47 39 M 50 35-39 29:38.6 29:47.7 9:32/M
336 Sophia Pilos Narron Johnson Price Sprinkle PA 696 19 F 3 15-19 29:40.5 29:59.1 9:32/M
337 Chris Bubenik United Way of Asheville & Bunc 1034 34 M 39 30-34 29:40.5 30:06.6 9:32/M
338 Stephanie Reryel 1380 24 F 8 20-24 29:41.0 29:47.6 9:33/M
339 Jim Biard CICS-NC 225 54 M 17 50-54 29:43.7 29:49.6 9:33/M
340 Melissa Murray Mosaix Group 786 45 F 9 45-49 29:45.5 29:54.9 9:34/M
341 Haven Kennedy Haywood Community College 539 38 F 16 35-39 29:51.7 30:18.3 9:36/M
342 Kim Shriner Luella's Bar-B-Que 1232 38 F 17 35-39 29:53.0 30:12.5 9:37/M
343 Craig Peters Luella's Bar-B-Que 1231 46 M 25 45-49 29:53.8 30:12.6 9:37/M
344 Nicolette Wehrli Eaton Corporation 1195 13 F 2 10-14 29:54.5 31:00.1 9:37/M
345 Michael Keating Sanesco Health 1346 27 M 41 25-29 29:54.9 30:25.3 9:37/M
346 Two Salabsri GE Aviation 488 54 M 18 50-54 29:55.9 30:44.1 9:37/M
347 Ryan Nespeca Asheville Mall 42 0 M 2 0- 0 29:56.3 30:41.6 9:37/M
348 Daniel Ward 1190 38 M 51 35-39 29:56.7 30:37.6 9:37/M
349 Ken Shields Buncombe County 208 45 M 26 45-49 29:59.8 31:03.0 9:38/M
350 Derek Huninghake Zealandia Capital, Inc. 1091 30 M 40 30-34 30:00.2 30:46.8 9:39/M
351 Andie Williams Zealandia Capital, Inc. 1104 29 F 17 25-29 30:00.7 30:45.7 9:39/M
352 Jonathan Wood 1198 41 M 44 40-44 30:02.5 30:24.6 9:39/M
353 Kristen Henderson Mission Health 759 25 F 18 25-29 30:02.7 31:18.8 9:39/M
354 Jordan Stokes The Grand Bohemian Hotel 1012 36 M 52 35-39 30:04.1 30:16.4 9:40/M
355 Michelle Nespeca Asheville Mall 41 0 F 1 0- 0 30:04.7 30:40.0 9:40/M
356 Briana Plautz Park Ridge Health 894 30 F 16 30-34 30:05.5 30:36.6 9:40/M
357 Leann Bound DixonPacifica Real Estate 353 42 F 14 40-44 30:08.5 30:14.1 9:41/M
358 Alejandra Pacheco 1331 27 F 19 25-29 30:09.3 30:13.7 9:42/M
359 Jimbo Stickney Insurance Service of Asheville 600 60 M 3 60-64 30:10.5 31:12.2 9:42/M
360 Morgan Bryant Roberts & Stevens, P.A. 946 27 F 20 25-29 30:11.6 30:20.2 9:42/M
361 Jason Faulkner Eaton Corporation 393 26 M 42 25-29 30:14.1 31:02.7 9:43/M
362 Jonathan Nameth Eaton Corporation 404 38 M 53 35-39 30:17.2 31:22.0 9:44/M
363 Mary Frances Kiffmeyer McGill Associates 745 35 F 18 35-39 30:18.1 30:50.0 9:45/M
364 Geoffrey Rollins City of Asheville 230 43 M 45 40-44 30:20.9 31:23.8 9:45/M
365 Thomas Ownbey PBI INC 902 26 M 43 25-29 30:21.7 30:31.2 9:46/M
366 Marco Brancker Mission health 773 41 M 46 40-44 30:22.0 30:34.1 9:46/M
367 Jeff Paul Asheville Area Habitat for Hum 24 53 M 19 50-54 30:22.8 30:56.3 9:46/M
368 Vic Vollmer The Givens Estates. Inc. 992 63 M 4 60-64 30:24.5 31:36.8 9:46/M
369 Katy Laughter Biltmore Estate / The Biltmore 135 24 F 9 20-24 30:24.9 31:22.8 9:46/M
370 Tom Mitchell Deltec Homes 335 57 M 8 55-59 30:25.4 30:36.4 9:47/M
371 Emma Reimels Johnson Price Sprinkle PA 634 13 F 3 10-14 30:26.4 30:42.4 9:47/M
372 Kimberly Nunnally NTCA-The Rural Broadband Assoc 887 42 F 15 40-44 30:26.4 30:38.9 9:47/M
373 Jeremy Plount NTCA-The Rural Broadband Assoc 872 30 M 41 30-34 30:28.3 30:52.1 9:48/M
374 Kimberly Ott genova diagnostics 519 26 F 21 25-29 30:28.9 30:33.2 9:48/M
375 Katy Gould Haywood Community College 537 31 F 17 30-34 30:28.9 30:56.5 9:48/M
376 Daniel Griffee McGill Associates 742 29 M 44 25-29 30:30.2 30:47.5 9:48/M
377 Dara Horstkemper 1368 36 F 19 35-39 30:31.3 31:31.4 9:49/M
378 David Kerestes Givens Highland Farms 1145 37 M 54 35-39 30:33.2 31:25.5 9:49/M
379 Stephanie Justus PLI 914 29 F 22 25-29 30:39.7 31:08.1 9:51/M
380 Logan Wehrli Eaton Corporation 1193 11 M 5 10-14 30:40.0 31:46.3 9:52/M
381 Katelynn Wagner Biltmore Estate / The Biltmore 152 22 F 10 20-24 30:41.0 31:41.1 9:52/M
382 Randy Adams Coldwell Banker King 1265 34 M 42 30-34 30:41.2 31:27.5 9:52/M
383 Phillip Jackson Roberts & Stevens, PA 949 47 M 27 45-49 30:42.6 31:39.9 9:52/M
384 Jeff Miller Luella's Bar-B-Que 1226 44 M 47 40-44 30:43.8 30:59.5 9:53/M
385 Hal Alexander Park Ridge Health 889 34 M 43 30-34 30:43.9 30:55.4 9:53/M
386 Cathy Braddock Festiva Development Group 437 47 F 10 45-49 30:44.1 31:38.7 9:53/M
387 Julie Bacon Mountain Area Health Education 833 23 F 11 20-24 30:44.3 31:06.7 9:53/M
388 Robert Holbrook Silver-Line Plastics 956 39 M 55 35-39 30:44.8 31:36.2 9:53/M
389 David Keitt City of Asheville 242 44 M 48 40-44 30:45.4 30:59.7 9:53/M
390 Nicole Ferrell Council on Aging of Buncombe C 327 33 F 18 30-34 30:46.7 31:10.6 9:54/M
391 Josh Meduri Keller Williams 712 32 M 44 30-34 30:48.2 31:05.7 9:54/M
392 Ryan Burleson Doctor Directory 365 32 M 45 30-34 30:48.7 31:20.0 9:54/M
393 Karen Jones 1388 30 F 19 30-34 30:48.8 31:14.7 9:54/M
394 Carl Twigg 1347 64 M 5 60-64 30:49.6 30:56.9 9:55/M
395 Pete Wall City of Asheville 296 39 M 56 35-39 30:50.3 32:05.6 9:55/M
396 Joseph Silberman City of Asheville 308 34 M 46 30-34 30:52.2 31:15.9 9:55/M
397 Hazel Willis NTCA-The Rural Broadband Assoc 876 31 F 20 30-34 30:53.3 31:17.5 9:56/M
398 Vanessa Scully YMCA of Western North Carolina 1074 37 F 20 35-39 30:53.7 31:01.0 9:56/M
399 John Noor Roberts & Stevens, PA 950 31 M 47 30-34 30:54.0 31:16.3 9:56/M
400 Blake Fagan Mountain Area Health Education 835 45 M 28 45-49 30:54.6 31:17.5 9:56/M
 
Place Name COMPANY Bib No Age Gender Age Group Chip Time Gun Time Pace
401 John Buddy 1119 10 M 6 10-14 30:54.8 31:06.8 9:56/M
402 Lauren Dawkins Sanesco Health 1344 25 F 23 25-29 30:55.4 32:19.3 9:56/M
403 Sarah Foley City of Asheville 306 29 F 24 25-29 30:55.8 31:11.6 9:56/M
404 Alex Krug French Broad Chocolate Lounge 1275 33 F 21 30-34 30:56.0 32:15.9 9:57/M
405 Karen Stewart Mission Health 768 53 F 5 50-54 30:56.6 31:43.7 9:57/M
406 Anthony Johnson City of Asheville 229 42 M 49 40-44 30:59.0 31:23.8 9:58/M
407 Eddie Colley Keller Williams 713 37 M 57 35-39 31:00.8 31:25.5 9:58/M
408 Shep Goldstein 1293 8 M 1 1- 9 31:03.4 32:02.7 9:59/M
409 Crystal Shirk Park Ridge Health 896 36 F 21 35-39 31:04.0 31:34.6 9:59/M
410 Jessica Ball Doctor Directory 373 37 F 22 35-39 31:04.7 31:46.6 9:59/M
411 John Creel 1379 33 M 48 30-34 31:05.2 31:26.8 10:00/M
412 Kelly Sams City of Asheville 252 36 F 23 35-39 31:06.5 31:49.7 10:00/M
413 Darrell Lewis Asheville Citizen-Times Publis 30 55 M 9 55-59 31:08.7 31:55.5 10:01/M
414 Deborah Haft 1356 31 F 22 30-34 31:10.0 31:45.8 10:01/M
415 Caroline Long City of Asheville 271 25 F 25 25-29 31:13.2 31:55.0 10:02/M
416 Larry Abare Colton Groome & Company 321 28 M 45 25-29 31:16.0 32:32.1 10:03/M
417 Kevin Rowsey J.Crew 616 28 M 46 25-29 31:16.7 31:25.8 10:03/M
418 Matt Groome Colton Groome & Company 322 32 M 49 30-34 31:16.8 32:32.7 10:03/M
419 Scott McLean Biltmore Estate / The Biltmore 94 43 M 50 40-44 31:18.6 31:29.6 10:04/M
420 Ann Grasso 1272 61 F 2 60-64 31:19.6 31:54.6 10:04/M
421 Lindsey Perone Borgwarner Asheville 203 29 F 26 25-29 31:20.3 31:56.2 10:05/M
422 Ed Gerber FLS Energy 458 50 M 20 50-54 31:20.4 31:34.1 10:05/M
423 Tate Groome Colton Groome & Company 323 36 M 58 35-39 31:20.8 32:31.8 10:05/M
424 Julie Furdyna 1137 50 F 6 50-54 31:21.3 31:38.0 10:05/M
425 Nick McLean Biltmore Estate / The Biltmore 151 33 M 50 30-34 31:21.9 31:45.7 10:05/M
426 Chris Helm Eaton Corporation 394 29 M 47 25-29 31:23.4 32:17.4 10:05/M
427 Sarah Champion CICS-NC 221 35 F 24 35-39 31:23.8 31:58.8 10:05/M
428 Lynne Helm Biltmore Estate / The Biltmore 93 29 F 27 25-29 31:24.3 32:16.9 10:06/M
429 Ella Osada 1162 8 F 1 1- 9 31:25.2 32:06.7 10:06/M
430 Katelyn Hever Eaton 392 25 F 28 25-29 31:26.2 32:15.4 10:06/M
431 Jessica Phelan Mountain BizWorks 859 35 F 25 35-39 31:29.1 31:46.2 10:07/M
432 Elizabeth Pendleton Biltmore Estate / The Biltmore 1224 44 F 16 40-44 31:29.9 32:24.2 10:07/M
433 Reuben Hollifield HomeTrust Bank 570 34 M 51 30-34 31:34.2 32:43.0 10:09/M
434 Leslie Young Ward and Smith, P.A. 1200 30 F 23 30-34 31:36.1 32:07.9 10:10/M
435 Holly Pilewski Asheville VA Medical Center 67 31 F 24 30-34 31:37.6 31:54.6 10:10/M
436 Ray Shem FLS Energy 468 34 M 52 30-34 31:39.6 32:39.3 10:11/M
437 Tomie Miller Johnson Price Sprinkle PA 667 29 F 29 25-29 31:39.7 36:04.2 10:11/M
438 Bruce Gilpin Sisters of Mercy Urgent Care, 958 58 M 10 55-59 31:42.6 33:01.9 10:12/M
439 Carla Reid Johnson Price Sprinkle PA 677 33 F 25 30-34 31:44.3 31:57.0 10:12/M
440 John Brokaw City of Asheville 233 55 M 11 55-59 31:47.4 32:50.4 10:13/M
441 Sherry Roane 1387 55 F 2 55-59 31:47.9 32:24.0 10:13/M
442 Seth Kellam Kellam Asheville JCC 39 36 M 59 35-39 31:49.3 32:11.4 10:14/M
443 Jennifer Kirby 1148 37 F 26 35-39 31:51.4 32:39.0 10:14/M
444 Jennifer Wood PLI 932 35 F 27 35-39 31:52.7 32:20.7 10:15/M
445 Allen Millsapps First Citizens Bank 454 39 M 60 35-39 31:55.9 32:08.5 10:16/M
446 Melissa Drennan NTCA-The Rural Broadband Assoc 882 45 F 11 45-49 31:56.0 32:22.0 10:16/M
447 Catherine Hoffman City of Asheville 303 27 F 30 25-29 31:59.5 32:35.2 10:17/M
448 Cecile Wight Biltmore Estate / The Biltmore 108 31 F 26 30-34 31:59.9 33:36.5 10:17/M
449 Nick Robinette J.Crew 615 30 M 53 30-34 32:01.1 32:10.9 10:18/M
450 Simone Yamazaki YMCA of Western North Carolina 1076 25 F 31 25-29 32:01.9 32:10.3 10:18/M
451 Reese Stoffo Insurance Service of Asheville 607 13 M 7 10-14 32:02.7 32:20.6 10:18/M
452 Royce Holden Greater Asheville Regional Air 527 42 M 51 40-44 32:05.1 38:48.1 10:19/M
453 Keith Levi Asheville Area Habitat for Hum 19 43 M 52 40-44 32:06.9 33:03.9 10:19/M
454 Michael Burzycki GE Aviation 497 38 M 61 35-39 32:08.4 32:57.4 10:20/M
455 Patrick Pilos Narron Johnson Price Sprinkle PA 695 25 M 48 25-29 32:09.2 36:37.3 10:20/M
456 Dale Danielson GE Aviation 486 54 M 21 50-54 32:17.1 32:57.3 10:23/M
457 Anna Morris Borgwarner Asheville 202 28 F 32 25-29 32:18.3 32:58.8 10:23/M
458 Jonna Reiff Asheville Area Chamber of Comm 15 50 F 7 50-54 32:18.7 32:32.1 10:23/M
459 Lucy Phillips i play 575 26 F 33 25-29 32:19.8 32:31.4 10:23/M
460 Levi Harris 1309 13 M 8 10-14 32:20.1 33:19.5 10:24/M
461 Aurelie Singleton GE Aviation 495 36 F 28 35-39 32:21.1 38:57.6 10:24/M
462 Scott Chauvin GE Aviation 493 33 M 54 30-34 32:21.2 38:57.4 10:24/M
463 Carol Browne Keller Williams 709 57 F 3 55-59 32:22.9 32:40.6 10:24/M
464 Laura Weathers BB&T (Branch Banking & Trust C 78 34 F 27 30-34 32:23.6 33:07.5 10:25/M
465 Sarah Hutchinson BorgWarner 181 32 F 28 30-34 32:24.4 33:01.1 10:25/M
466 Dale Snipes Biltmore Estate / The Biltmore 92 35 M 62 35-39 32:25.5 33:21.1 10:25/M
467 Dodie Stephens Asheville Area Chamber of Comm 16 35 F 29 35-39 32:26.1 32:39.0 10:26/M
468 Marissa Ouimette Blue Ridge Bone & Joint Clinic 171 36 F 30 35-39 32:27.1 32:38.8 10:26/M
469 Stephanie Chow Biltmore Estate / The Biltmore 155 27 F 34 25-29 32:27.5 33:16.4 10:26/M
470 Ben Teague Asheville Area Chamber of Comm 12 36 M 63 35-39 32:27.8 32:57.8 10:26/M
471 Julie Calhoun-Roepnack Insurance Service of Asheville 609 51 F 8 50-54 32:31.6 34:21.5 10:27/M
472 Amy Fuller i play 577 32 F 29 30-34 32:31.7 32:58.1 10:27/M
473 Wendy Hines Haywood Community College 538 37 F 31 35-39 32:32.7 33:00.0 10:28/M
474 Anna Buys Dixon Hughes Goodman LLP 345 29 F 35 25-29 32:36.3 34:34.0 10:29/M
475 Whitney Collier Buncombe County 207 25 F 36 25-29 32:40.0 33:43.7 10:30/M
476 Corey Belt Buncombe County 205 36 M 64 35-39 32:40.1 33:43.8 10:30/M
477 Jonathan Allen Biltmore Estate / The Biltmore 137 30 M 55 30-34 32:41.3 33:23.0 10:31/M
478 Eric Lindquist PLI 934 37 M 65 35-39 32:41.4 33:12.8 10:31/M
479 Vida Hill Asheville Savings Bank 46 33 F 30 30-34 32:43.9 32:58.1 10:31/M
480 Tyler Kilpatrick Mountain Physical Therapy 1146 27 F 37 25-29 32:46.1 33:39.1 10:32/M
481 Erika Martin Blue Ridge Bone & Joint Clinic 167 29 F 38 25-29 32:46.9 33:07.6 10:32/M
482 Jonathan Weaver The Givens Estates. Inc. 972 29 M 49 25-29 32:48.2 33:20.8 10:33/M
483 Brooks W. Buddy Buddy Givens Estates 1118 44 F 17 40-44 32:50.2 33:02.5 10:33/M
484 Zurilma Anuel Mountain BizWorks 857 41 F 18 40-44 32:51.4 33:08.4 10:34/M
485 Victoria Arnish Luella's Bar-B-Que 1229 32 F 31 30-34 32:55.8 33:07.5 10:35/M
486 Jessica Chapman Charlotte Street Computers 219 34 F 32 30-34 32:56.5 33:09.4 10:35/M
487 Danny Farlow Johnson Price Sprinkle PA 625 58 M 12 55-59 32:58.0 33:59.1 10:36/M
488 Mary Ellen Dendy Insurance Service of Asheville 610 26 F 39 25-29 32:58.1 33:37.5 10:36/M
489 Jessica Stavish Charlotte Street Computers 220 31 F 33 30-34 33:00.2 33:13.1 10:37/M
490 Jon Wehrli Eaton Corporation 420 53 M 22 50-54 33:01.8 34:07.4 10:37/M
491 Bill Durr Ward and Smith, P.A. 1043 50 M 23 50-54 33:02.7 33:34.6 10:37/M
492 Leishla Gusman The Grand Bohemian Hotel 1010 26 F 40 25-29 33:03.2 33:07.3 10:38/M
493 Ryan Coster Eaton Corporation 389 27 M 50 25-29 33:03.8 33:52.8 10:38/M
494 Dan Steiner oxglen vacation rentals 1182 41 M 53 40-44 33:03.9 33:19.6 10:38/M
495 Scott Ray Webb Insurance 1055 43 M 54 40-44 33:04.3 33:28.7 10:38/M
496 Bruce Luecke Eaton Corporation 395 53 M 24 50-54 33:04.9 35:21.9 10:38/M
497 Emily Ducat Park Ridge Health 891 34 F 34 30-34 33:05.2 33:14.8 10:38/M
498 Gwen Wisler City of Asheville 280 55 F 4 55-59 33:05.5 34:12.4 10:38/M
499 Esther Manheimer 1308 43 F 19 40-44 33:07.9 34:09.4 10:39/M
500 Kendall Edwards Doctor Directory 377 24 M 16 20-24 33:10.0 33:41.0 10:40/M
 
Place Name COMPANY Bib No Age Gender Age Group Chip Time Gun Time Pace
501 Debbie Cooley 1306 49 F 12 45-49 33:10.2 34:10.6 10:40/M
502 Abe Goldstein 1292 12 M 9 10-14 33:10.8 34:12.2 10:40/M
503 Alexis Rachkovsky Sanesco Health 1343 31 F 35 30-34 33:14.1 33:55.9 10:41/M
504 Mindy Fisher Dungan, Kilbourne & Stahl, P.A 382 38 F 32 35-39 33:15.1 33:35.9 10:41/M
505 Matt Friedman PLI 939 34 M 56 30-34 33:18.2 33:59.8 10:42/M
506 Leah Buletti Asheville Citizen-Times Publis 25 24 F 12 20-24 33:19.1 34:14.4 10:43/M
507 Jeff Washburn Asheville Mall 43 42 M 55 40-44 33:20.1 34:02.8 10:43/M
508 Alex Kellner Asheville Citizen-Times Publis 27 34 M 57 30-34 33:21.2 34:08.7 10:43/M
509 Robbie Muirhead Dixon Hughes Goodman LLP 350 27 M 51 25-29 33:21.3 34:33.2 10:43/M
510 Charlie Flournoy Zealandia Capital, Inc. 1089 24 M 17 20-24 33:26.1 34:12.4 10:45/M
511 Mark Ledbetter Keller Williams 710 55 M 13 55-59 33:28.3 33:46.3 10:46/M
512 Quinn Mitchell YMCA of Western North Carolina 1078 12 M 10 10-14 33:32.0 33:50.0 10:47/M
513 Jack Anderson 1373 12 M 11 10-14 33:32.6 33:50.5 10:47/M
514 Elsa Nickl CICS-NC 227 44 F 20 40-44 33:32.9 34:10.1 10:47/M
515 Marcus Barksdale City of Asheville 281 46 M 29 45-49 33:37.3 33:57.1 10:49/M
516 Jonathan Nelson Insurance Service of Asheville 599 53 M 25 50-54 33:38.0 34:40.2 10:49/M
517 Pete Cram Coldwell Banker King 318 44 M 56 40-44 33:38.2 34:24.0 10:49/M
518 Suzanne Kortus Mission Health 760 54 F 9 50-54 33:41.7 35:00.1 10:50/M
519 Jenifer Bubenik Council on Aging of Buncombe C 326 36 F 33 35-39 33:45.1 34:08.8 10:51/M
520 Carol Steen Mountain Area Health Education 852 F 2 0- 0 33:45.7 34:57.9 10:51/M
521 Sharon Rosseland MAHEC 1256 56 F 5 55-59 33:47.3 34:27.8 10:52/M
522 Tosha Moss J.Crew 624 32 F 36 30-34 33:50.2 34:16.3 10:53/M
523 Hannah Pollard HomeTrust Bank 560 26 F 41 25-29 33:52.8 34:31.4 10:53/M
524 Allison Sprague Blue Ridge Bone & Joint Clinic 164 25 F 42 25-29 33:53.3 34:16.6 10:54/M
525 Sara Phillips HomeTrust Bank 559 30 F 37 30-34 33:53.7 34:31.5 10:54/M
526 Theresa Stone CICS-NC 224 36 F 34 35-39 33:55.4 34:31.6 10:54/M
527 Jessica Nile Keller Williams 714 27 F 43 25-29 33:56.2 34:19.7 10:55/M
528 Cindy Kimmel Patton Hospitality Management 1147 37 F 35 35-39 33:59.5 35:28.0 10:56/M
529 Scott Jarvis Biltmore Estate / The Biltmore 156 42 M 57 40-44 33:59.8 34:37.0 10:56/M
530 Kate Rogers The Givens Estates. Inc. 978 29 F 44 25-29 34:01.4 35:03.9 10:56/M
531 Amira Ranney Mountain Physical Therapy 1171 56 F 6 55-59 34:02.0 34:54.8 10:57/M
532 George Basher Tonsofrentals.com 1030 49 M 30 45-49 34:02.6 34:30.6 10:57/M
533 Michael Silfies PBI INC 903 28 M 52 25-29 34:02.9 34:12.7 10:57/M
534 John Maddux City of Asheville 304 33 M 58 30-34 34:03.0 34:36.6 10:57/M
535 Nathaniel Shelton Grove Stone & Sand Company 534 28 M 53 25-29 34:03.9 34:10.3 10:57/M
536 Justin Mintz Mission Health System 778 36 M 66 35-39 34:05.4 35:35.2 10:58/M
537 Cougan Taylor Sisters of Mercy Urgent Care, 1185 12 M 12 10-14 34:05.6 34:41.9 10:58/M
538 Tim Johnston Sisters of Mercy Urgent Care, 962 58 M 14 55-59 34:05.7 34:42.7 10:58/M
539 Celia Liming Sisters of Mercy Urgent Care, 963 51 F 10 50-54 34:05.7 34:41.9 10:58/M
540 Delaney Taylor Sisters of Mercy Urgent Care, 1186 16 F 4 15-19 34:05.9 34:41.7 10:58/M
541 Raj Chandramohanan Borgwarner Asheville 198 36 M 67 35-39 34:07.6 35:00.4 10:58/M
542 Scott Boroff Borgwarner Asheville 197 51 M 26 50-54 34:11.6 34:52.4 10:59/M
543 Chris Lynch Asheville Security Systems 54 45 M 31 45-49 34:11.8 34:41.7 10:59/M
544 Janet Lampkin City of Asheville 251 57 F 7 55-59 34:12.7 35:02.9 11:00/M
545 Tim Metzgar J.Crew 614 49 M 32 45-49 34:16.2 34:24.6 11:01/M
546 Sydney Bartson Asheville Humane Society 33 23 F 13 20-24 34:16.3 34:55.9 11:01/M
547 Emily Gelb Asheville Humane Society 35 26 F 45 25-29 34:16.6 34:55.7 11:01/M
548 Joe Danna Doctor Directory 362 37 M 68 35-39 34:17.0 34:38.0 11:01/M
549 Lauren Schneider The Bair Foundation 968 27 F 46 25-29 34:17.1 35:39.6 11:01/M
550 Terri King Coldwell Banker King 319 41 F 21 40-44 34:20.6 35:06.6 11:02/M
551 Christen McNamara City of Asheville 266 35 F 36 35-39 34:24.7 35:08.2 11:04/M
552 Haley Batsel The Grand Bohemian Hotel 1013 29 F 47 25-29 34:25.8 34:38.1 11:04/M
553 Virginia Pardo City of Asheville 299 0 F 3 0- 0 34:30.2 35:33.0 11:06/M
554 Lynn Piasecki Borgwarner Asheville 204 33 F 38 30-34 34:33.5 35:11.8 11:07/M
555 Marcos Romero 1341 28 M 54 25-29 34:33.6 34:33.6 11:07/M
556 Allie Lorette Zealandia Capital, Inc. 1101 28 F 48 25-29 34:35.6 35:20.4 11:07/M
557 Nina Kis 1385 49 F 13 45-49 34:36.5 34:59.2 11:08/M
558 Christian Funk Deltec Homes 1136 31 M 59 30-34 34:41.8 35:08.4 11:09/M
559 Deeanna Riggan Navitat Canopy Adventures 1264 25 F 49 25-29 34:43.0 34:53.2 11:10/M
560 Kaylee Hutzler 1330 10 F 4 10-14 34:48.2 35:30.7 11:11/M
561 Jill Steiner oxglen vacation rentals 1183 35 F 37 35-39 34:50.5 35:05.0 11:12/M
562 Katie Chaplin 1127 30 F 39 30-34 34:56.1 35:07.5 11:14/M
563 Leah Graham Stewart 1369 36 F 38 35-39 34:58.9 36:52.3 11:15/M
564 Chelsea Hall genova diagnostics 510 24 F 14 20-24 35:00.8 35:29.5 11:15/M
565 Landon Maroney Eaton Corporation 403 32 M 60 30-34 35:02.1 36:53.5 11:16/M
566 Tina Reese Bonar Inc 175 45 F 14 45-49 35:04.0 35:18.2 11:17/M
567 Sue Dolquist Carolina Mountain Sales, A Wil 213 47 F 15 45-49 35:04.0 35:57.9 11:17/M
568 Stephanie Reese Bonar Inc 174 20 F 15 20-24 35:04.4 35:19.4 11:17/M
569 Molly McNichols Carolina Mountain Sales 211 53 F 11 50-54 35:04.5 35:58.5 11:17/M
570 Leslie Ryan BB&T (Branch Banking & Trust C 84 44 F 22 40-44 35:06.2 35:43.2 11:17/M
571 Susan Puryear BB&T (Branch Banking & Trust C 83 43 F 23 40-44 35:06.6 35:43.1 11:17/M
572 Kerry McNeill BB&T (Branch Banking & Trust C 81 40 F 24 40-44 35:07.2 35:43.4 11:17/M
573 Sarah Philipp Park Ridge Health 893 28 F 50 25-29 35:07.2 35:37.7 11:17/M
574 Sonja Kun City of Asheville 243 44 F 25 40-44 35:09.6 36:12.4 11:18/M
575 Pamela Gibson Silver-Line Plastics 955 49 F 16 45-49 35:21.2 36:15.4 11:22/M
576 Sergio Vazquez PBI INC 904 35 M 69 35-39 35:21.5 35:31.7 11:22/M
577 Christopher Sawyer Silver-Line Plastics 1175 50 M 27 50-54 35:22.4 36:15.6 11:22/M
578 Linda Copley CICS-NC 226 54 F 12 50-54 35:24.1 36:00.6 11:23/M
579 Tim Keith Eaton Corporation 411 36 M 70 35-39 35:25.5 35:31.4 11:23/M
580 Gretchen Camp Will Run for Beer 1069 40 F 26 40-44 35:25.5 36:40.0 11:23/M
581 Carol Goodrum Biltmore Estate / The Biltmore 125 60 F 3 60-64 35:27.2 36:03.5 11:24/M
582 Rachel Alexander FLS Energy 462 26 F 51 25-29 35:27.7 36:53.1 11:24/M
583 Whitney Whitson HomeTrust Bank 552 28 F 52 25-29 35:30.9 36:35.4 11:25/M
584 April Sides CICS-NC 228 33 F 40 30-34 35:31.2 36:08.3 11:25/M
585 Felicia Hipp Mountain Area Health Education 797 43 F 27 40-44 35:32.3 35:55.9 11:26/M
586 Erin Outlaw Council on Aging of Buncombe C 328 31 F 41 30-34 35:33.0 37:54.8 11:26/M
587 Lenore Hardin Biltmore Estate / The Biltmore 118 34 F 42 30-34 35:34.9 36:12.8 11:26/M
588 Spencer Levleit Deltec Homes 338 43 M 58 40-44 35:36.6 37:21.4 11:27/M
589 Andrew Stearns Aeroflow Healthcare, Inc. 7 31 M 61 30-34 35:38.0 37:02.5 11:27/M
590 Gretta Fisher Insurance Service of Asheville 605 32 F 43 30-34 35:39.3 35:58.3 11:28/M
591 Randall Blankenship Coldwell Banker King 1267 31 M 62 30-34 35:43.5 36:29.5 11:29/M
592 Linda Hegar Mountain Area Health Education 854 60 F 4 60-64 35:44.9 36:10.4 11:29/M
593 Hannah Farlow Johnson Price Sprinkle PA 626 24 F 16 20-24 35:45.9 36:46.6 11:30/M
594 Claire Gillispie MAHEC 1214 28 F 53 25-29 35:46.1 35:59.1 11:30/M
595 Tammy Roberts Eaton Corporation 388 35 F 39 35-39 35:46.7 36:10.4 11:30/M
596 Amber Boroff i play 589 36 F 40 35-39 35:46.9 36:39.5 11:30/M
597 Felisha Nix PLI 923 29 F 54 25-29 35:47.8 36:55.8 11:30/M
598 Catherine Claussen Zealandia Holding Company 1105 31 F 44 30-34 35:49.6 37:49.4 11:31/M
599 Lindsay Hamrick Johnson Price Sprinkle PA 650 18 F 5 15-19 35:50.7 36:09.4 11:31/M
600 Calli Hamrick Johnson Price Sprinkle PA 647 19 F 6 15-19 35:51.2 36:11.6 11:32/M
 
Place Name COMPANY Bib No Age Gender Age Group Chip Time Gun Time Pace
601 Jackie Dirschel 1333 33 F 45 30-34 35:51.6 36:07.5 11:32/M
602 Leanna Craddock PLI 927 36 F 41 35-39 35:52.7 36:11.8 11:32/M
603 Candice Maliska PLI 935 32 F 46 30-34 35:59.8 36:33.0 11:34/M
604 Sarah Merrell Diamond Brand Outdoors 1281 32 F 47 30-34 36:03.6 36:23.1 11:35/M
605 Shelley McCarson Linamar 739 40 F 28 40-44 36:03.7 37:00.3 11:35/M
606 Aubrieann Dickert Dungan, Kilbourne & Stahl, P.A 381 30 F 48 30-34 36:05.1 36:33.9 11:36/M
607 Annette Laforge Doctor Directory 368 29 F 55 25-29 36:07.7 36:27.5 11:37/M
608 Glen Higdon Doctor Directory 378 45 M 33 45-49 36:08.4 36:39.9 11:37/M
609 Marcus Iacoppi genova diagnostics 511 29 M 55 25-29 36:09.2 36:38.6 11:37/M
610 P J Mears Mission Health 770 51 M 28 50-54 36:14.8 37:13.8 11:39/M
611 Frank Cherry 1128 36 M 71 35-39 36:15.9 37:05.5 11:39/M
612 John Dyess Linamar 726 35 M 72 35-39 36:19.0 43:01.6 11:41/M
613 Becca Ivey The Bair Foundation 966 30 F 49 30-34 36:23.5 37:45.2 11:42/M
614 Julia Fields City of Asheville 262 59 F 8 55-59 36:24.1 36:46.1 11:42/M
615 Jeremy Brooks City of Asheville 298 0 M 3 0- 0 36:24.7 37:30.1 11:42/M
616 Les Greer NTCA-The Rural Broadband Assoc 870 53 M 29 50-54 36:24.7 37:35.2 11:42/M
617 Manny Hurtado Eaton Corporation 410 24 M 18 20-24 36:24.9 36:30.9 11:42/M
618 Greg Allen Linamar 737 45 M 34 45-49 36:28.1 44:01.3 11:44/M
619 Wende Kimble Thermo Fisher Scientific 1022 48 F 17 45-49 36:29.6 37:13.8 11:44/M
620 Renee Seigler Keller Williams 711 44 F 29 40-44 36:29.9 36:52.3 11:44/M
621 Megan Arrington Bonar Inc 173 22 F 17 20-24 36:30.6 36:44.6 11:44/M
622 Dana Jones J.Crew 622 57 M 15 55-59 36:30.7 36:57.9 11:44/M
623 Shelly Phelps 1165 46 F 18 45-49 36:30.8 37:23.9 11:44/M
624 Crystal Clark Blue Ridge Bone & Joint Clinic 169 31 F 50 30-34 36:37.5 36:49.4 11:46/M
625 Murphy Doty FLS Energy 457 46 M 35 45-49 36:38.0 37:03.0 11:47/M
626 Max Hightower Zealandia Capital, Inc. 1090 26 M 56 25-29 36:40.3 38:06.1 11:47/M
627 Caleb McKee Zealandia Capital, Inc. 1095 21 M 19 20-24 36:40.6 38:06.5 11:47/M
628 Logan Wells GE Aviation 492 29 M 57 25-29 36:41.3 37:33.3 11:48/M
629 Kim Barnhardt Eaton Corporation 417 41 F 30 40-44 36:43.0 37:07.7 11:48/M
630 Christian Suggs Zealandia Capital, Inc. 1096 24 M 20 20-24 36:43.5 38:10.0 11:48/M
631 Bridget Adams Coldwell Banker King 317 34 F 51 30-34 36:44.4 37:29.7 11:49/M
632 Jeffrey Camp Will Run for Beer 1070 56 M 16 55-59 36:44.4 38:06.1 11:49/M
633 Kristen Devore Mission Health 757 30 F 52 30-34 36:44.6 38:05.2 11:49/M
634 Helaine McCulloch PLI 922 30 F 53 30-34 36:47.2 37:55.4 11:50/M
635 Donna Smith Mission Health 767 49 F 19 45-49 36:48.5 38:01.7 11:50/M
636 Andrew Martin Sanesco Health 1345 29 M 58 25-29 36:53.7 37:34.5 11:52/M
637 Taylor Bell West Buncombe Elementary 1066 34 F 54 30-34 36:58.4 37:30.9 11:53/M
638 Briana Hastings West Buncombe Elementary 1067 30 F 55 30-34 36:58.6 37:31.0 11:53/M
639 Lori Ahn West Buncombe Elementary 1065 40 F 31 40-44 36:58.9 37:30.8 11:53/M
640 Mary Euler McGuire, Wood & Bissette, PA 749 47 F 20 45-49 36:59.4 37:32.4 11:54/M
641 Christin Jones West Buncombe Elementary 1068 27 F 56 25-29 36:59.9 37:31.3 11:54/M
642 Anna Baitchenko 1316 26 F 57 25-29 37:05.9 38:02.3 11:55/M
643 Ricky Foor The Givens Estates. Inc. 970 37 M 73 35-39 37:07.3 38:00.0 11:56/M
644 Chris Lendrim NTCA-The Rural Broadband Assoc 877 26 M 59 25-29 37:08.9 38:05.1 11:56/M
645 Cynthia Potter i play 583 47 F 21 45-49 37:09.3 38:29.2 11:57/M
646 Elizabeth McLean Biltmore Estate / The Biltmore 150 31 F 56 30-34 37:16.2 38:16.4 11:59/M
647 Lena Richards McGill Associates 747 34 F 57 30-34 37:18.5 37:48.2 12:00/M
648 Joann Sheldon NTCA-The Rural Broadband Assoc 875 62 F 5 60-64 37:19.2 37:32.0 12:00/M
649 Brett Sullivan Biltmore Estate / The Biltmore 140 34 M 63 30-34 37:19.3 38:10.1 12:00/M
650 Richard Berg PLI 937 39 M 74 35-39 37:20.2 37:55.6 12:00/M
651 Carmen Govea i play 587 42 F 32 40-44 37:20.6 38:40.3 12:00/M
652 Ashley Dejong Navitat Canopy Adventures 1263 25 F 58 25-29 37:22.0 37:31.4 12:01/M
653 Kristin Perez City of Asheville 267 32 F 58 30-34 37:23.0 38:26.5 12:01/M
654 Caroline Lieberman Mission Health 766 45 F 22 45-49 37:23.4 38:11.9 12:01/M
655 Vicky Haskell City of Asheville 283 33 F 59 30-34 37:23.4 37:41.7 12:01/M
656 Chris Dunbar FLS Energy 473 36 M 75 35-39 37:25.5 38:24.8 12:02/M
657 Ed Hillman The Givens Estates. Inc. 990 58 M 17 55-59 37:32.9 37:52.0 12:04/M
658 Gary Cornett Biltmore Estate / The Biltmore 142 55 M 18 55-59 37:33.1 38:51.1 12:04/M
659 Ging Fuller Borgwarner Asheville 201 26 F 59 25-29 37:33.8 38:14.7 12:04/M
660 Christopher Hickman City of Asheville 307 28 M 60 25-29 37:35.0 37:56.4 12:05/M
661 Carl Schreck CICS-NC 223 33 M 64 30-34 37:35.1 38:14.1 12:05/M
662 Kristin Pressley NTCA-The Rural Broadband Assoc 878 33 F 60 30-34 37:39.0 38:56.1 12:06/M
663 Phil Smith 1298 68 M 2 65-69 37:41.9 39:37.7 12:07/M
664 Kevin Blocker Zealandia Holding Company 1110 41 M 59 40-44 37:42.1 39:06.5 12:07/M
665 William Dawson 1049 23 M 21 20-24 37:42.3 38:47.4 12:07/M
666 Meghan Atkinson Deerfield Episcopal Retirement 329 27 F 60 25-29 37:45.6 39:48.3 12:08/M
667 Crisanta Garcia i play 586 24 F 18 20-24 37:47.0 39:19.1 12:09/M
668 Nancy Bell Webb Insurance 1058 56 F 9 55-59 37:47.1 38:28.9 12:09/M
669 Sylvia Gonzalez Linamar 738 56 F 10 55-59 37:47.6 38:54.8 12:09/M
670 Angie Black The Laurels of Greentree Ridge 1017 38 F 42 35-39 37:48.9 38:56.6 12:09/M
671 Jan Baumrind 1299 41 M 60 40-44 37:57.5 39:20.9 12:12/M
672 Kim Hixon Linamar 731 40 F 33 40-44 37:59.4 38:32.9 12:13/M
673 Micah Wohlford First Citizens Bank 456 29 M 61 25-29 38:00.1 38:13.6 12:13/M
674 Darryl Stephenson 1184 48 M 36 45-49 38:00.9 38:08.1 12:13/M
675 Scott Workman Johnson Price Sprinkle PA 644 40 M 61 40-44 38:05.2 40:31.1 12:15/M
676 Kaelyn Hixon Linamar 730 14 F 5 10-14 38:05.3 38:21.3 12:15/M
677 Emily Wood Asheville VA Medical Center 68 34 F 61 30-34 38:06.9 38:31.7 12:15/M
678 Lauren MacDonald Will Run for Beer 1072 29 F 61 25-29 38:07.0 39:28.9 12:15/M
679 Ann Hubbard Asheville Area Habitat for Hum 22 64 F 6 60-64 38:13.7 38:52.7 12:17/M
680 Martha Williams Ward and Smith, P.A. 1048 30 F 62 30-34 38:17.3 39:35.3 12:19/M
681 Tina Lynch Webb Insurance 1060 43 F 34 40-44 38:23.2 38:50.8 12:21/M
682 Madeleine Hodges The Grand Bohemian Hotel 1001 23 F 19 20-24 38:23.4 38:37.1 12:21/M
683 Liz Lafitte 1322 27 F 62 25-29 38:32.9 39:48.4 12:23/M
684 Sonja Palmer City of Asheville 256 27 F 63 25-29 38:33.2 38:59.2 12:24/M
685 Alicia Fleming The Givens Estates. Inc. 982 31 F 63 30-34 38:33.6 39:43.2 12:24/M
686 Jillian Hamel Zealandia Capital, Inc. 1097 25 F 64 25-29 38:36.7 39:22.1 12:25/M
687 Valerie Phillips HomeTrust Bank 571 30 F 64 30-34 38:37.5 39:58.3 12:25/M
688 Blair Scott 1378 31 M 65 30-34 38:43.0 39:05.0 12:27/M
689 Alfredo Valle MAHEC 1238 34 M 66 30-34 38:48.1 39:44.8 12:29/M
690 Carla Valle MAHEC 1239 31 F 65 30-34 38:48.4 39:42.9 12:29/M
691 Hunter Thompson 1315 25 M 62 25-29 38:51.8 40:03.5 12:30/M
692 Eli Robles GE Aviation 491 26 F 65 25-29 38:56.8 39:48.4 12:31/M
693 Abi Carpenter GE Aviation 489 24 F 20 20-24 38:56.8 39:48.8 12:31/M
694 Justin McCue Zealandia Capital, Inc. 1102 31 M 67 30-34 38:57.6 39:42.6 12:31/M
695 Julie Simes Zealandia Capital, Inc. 1103 40 F 35 40-44 38:57.8 39:42.7 12:31/M
696 Kelsey Acquino Bankers Insurance, LLC 73 23 F 21 20-24 39:03.3 39:53.5 12:33/M
697 Kristy Wilson Bankers Insurance, LLC 76 48 F 23 45-49 39:03.5 39:53.6 12:33/M
698 Jody Grabowski Eaton Corporation 390 39 M 76 35-39 39:04.0 40:02.8 12:34/M
699 Donna Yost Biltmore Estate / The Biltmore 148 48 F 24 45-49 39:04.2 40:48.6 12:34/M
700 Marin Bower-Smith Roberts & Stevens, P.A. 945 30 F 66 30-34 39:04.6 40:03.7 12:34/M
 
Place Name COMPANY Bib No Age Gender Age Group Chip Time Gun Time Pace
701 Liza Provenzano 1170 37 F 43 35-39 39:09.5 39:20.9 12:35/M
702 Brandon Jones FLS Energy 459 42 M 62 40-44 39:09.8 39:39.4 12:35/M
703 Brenna Cook City of Asheville 309 36 F 44 35-39 39:11.6 40:33.7 12:36/M
704 Melanie Morton The Laurels of Greentree Ridge 1019 26 F 66 25-29 39:12.4 40:21.0 12:36/M
705 Andrew Chow Biltmore Estate / The Biltmore 154 28 M 63 25-29 39:13.9 40:02.8 12:37/M
706 Franklin Stone genova diagnostics 512 28 M 64 25-29 39:14.4 39:43.7 12:37/M
707 David King Greater Asheville Regional Air 528 39 M 77 35-39 39:15.5 45:57.1 12:37/M
708 Ashley Taylor Grove Stone & Sand Company 535 36 F 45 35-39 39:18.5 39:26.8 12:38/M
709 Perry Hendrix Asheville Savings Bank 50 61 M 6 60-64 39:20.0 39:34.8 12:39/M
710 Jayden Mancini Keith Hargrave Architect 1359 10 F 6 10-14 39:22.6 39:55.5 12:39/M
711 Loretta Weisner Deltec Homes 340 45 F 25 45-49 39:23.0 40:30.4 12:40/M
712 Patricia Hargrave 1358 52 F 13 50-54 39:25.1 39:57.1 12:40/M
713 Grace Villalta MAHEC 1240 26 F 67 25-29 39:27.0 40:21.0 12:41/M
714 Stephanie Estrada NTCA-The Rural Broadband Assoc 886 23 F 22 20-24 39:29.3 41:35.0 12:42/M
715 Kinta Bowditch MAHEC 1217 38 F 46 35-39 39:34.8 41:18.2 12:43/M
716 Joseph Taylor 1187 33 M 68 30-34 39:36.8 40:45.6 12:44/M
717 Natasha Goodrum Biltmore Estate / The Biltmore 128 29 F 68 25-29 39:37.8 40:13.9 12:44/M
718 Grey Taylor HomeTrust Bank 572 33 F 67 30-34 39:41.8 40:46.0 12:46/M
719 Darren Pinkerton PBI INC 906 48 M 37 45-49 39:44.0 40:35.4 12:47/M
720 Herry Hegar Mountain Area Health Education 853 62 M 7 60-64 39:44.6 40:09.6 12:47/M
721 Pat Earley 1296 44 F 36 40-44 39:44.7 41:06.6 12:47/M
722 Joan Colburn Mountain Area Health Education 817 57 F 11 55-59 39:50.0 40:32.7 12:48/M
723 Heather Harrington HomeTrust Bank 553 30 F 68 30-34 39:57.4 41:04.7 12:51/M
724 James Baley 1304 33 M 69 30-34 39:57.9 41:20.5 12:51/M
725 Amy Madill 1302 29 F 69 25-29 39:57.9 41:20.5 12:51/M
726 Rachel Pearlstein Asheville Jewish Community Cen 1164 22 F 23 20-24 40:14.1 40:41.2 12:56/M
727 Naomi Workman Johnson Price Sprinkle PA 642 5 F 2 1- 9 40:16.9 42:41.7 12:57/M
728 Bridgette Blanton i play 573 25 F 70 25-29 40:22.5 42:03.2 12:59/M
729 Jill Hammack Carolina Mountain Sales 210 46 F 26 45-49 40:22.9 41:13.2 12:59/M
730 Lee Pitzer Linamar 732 52 F 14 50-54 40:28.9 41:07.7 13:01/M
731 Keith Snyder Linamar 728 44 M 63 40-44 40:29.4 41:07.8 13:01/M
732 Ellen Heywood Greater Asheville Regional Air 526 48 F 27 45-49 40:30.8 47:12.2 13:01/M
733 Natalie Smith Mountain Area Health Education 799 30 F 69 30-34 40:33.6 48:58.3 13:02/M
734 Jessica Miller J.Crew 619 0 F 4 0- 0 40:35.6 41:00.9 13:03/M
735 Scott Dudley Mountain Area Health Education 849 M 4 0- 0 40:40.8 41:26.0 13:05/M
736 Sarah Eggers Johnson Price Sprinkle PA 666 28 F 71 25-29 40:42.2 45:05.9 13:05/M
737 Jack Cloninger Cloninger, Barbour, Searson, & 313 59 M 19 55-59 40:50.5 42:03.0 13:08/M
738 Alex Webb Johnson Price Sprinkle PA 699 13 M 13 10-14 40:52.3 41:50.1 13:08/M
739 Stacey Wasielewski Asheville Citizen-Times Publis 32 50 F 15 50-54 40:55.9 41:51.6 13:09/M
740 Ron Katz United Way of Asheville & Bunc 1036 64 M 8 60-64 40:56.4 41:55.9 13:10/M
741 Devon Bush Mission Health 761 36 F 47 35-39 40:57.1 41:57.5 13:10/M
742 Rebecca Stissel-Moon MountainTrue 867 29 F 72 25-29 40:58.5 41:22.1 13:10/M
743 Beth Bullock-John City of Asheville 269 37 F 48 35-39 41:00.4 42:39.1 13:11/M
744 Jarrod Perkins Asheville Savings Bank 51 37 M 78 35-39 41:08.7 42:55.9 13:14/M
745 Jessica Larose Biltmore Estate / The Biltmore 139 25 F 73 25-29 41:22.7 42:04.4 13:18/M
746 Lauren Binks Biltmore Estate / The Biltmore 145 31 F 70 30-34 41:24.1 42:04.5 13:19/M
747 Jen Thompson 1352 38 F 49 35-39 41:24.5 43:51.6 13:19/M
748 Jasmine Tiberi 1351 37 F 50 35-39 41:24.7 43:49.7 13:19/M
749 Kathy Jones GE Aviation 494 58 F 12 55-59 41:27.3 42:19.8 13:20/M
750 Aaron Fay Keith Hargrave Architect 1360 11 M 14 10-14 41:29.8 42:02.6 13:20/M
751 Laurel Young Ward and Smith, P.A. 1199 56 F 13 55-59 41:35.4 42:07.4 13:22/M
752 Jen Fry Patton Hospitality Management 898 35 F 51 35-39 41:36.3 43:04.8 13:23/M
753 Charles Staton AutoBell Car Wash 71 22 M 22 20-24 41:38.9 41:54.6 13:23/M
754 Sienna Cave HomeTrust Bank 549 30 F 71 30-34 41:38.9 42:17.2 13:23/M
755 Ian Evans Silver-Line Plastics 954 27 M 65 25-29 41:39.6 43:03.1 13:24/M
756 Mike Sitton Mission health 776 49 M 38 45-49 41:43.7 42:29.2 13:25/M
757 Karin Teague HomeTrust Bank 556 52 F 16 50-54 41:47.4 43:08.1 13:26/M
758 Alexandra Bradley Greater Asheville Regional Air 525 27 F 74 25-29 41:48.5 48:31.1 13:26/M
759 Carlos Harper City of Asheville 285 42 M 64 40-44 41:51.7 42:58.5 13:27/M
760 Josh Christopher AutoBell Car Wash 70 21 M 23 20-24 41:53.1 41:53.1 13:28/M
761 Dwayne Hensley GE Aviation 498 54 M 30 50-54 41:54.2 42:43.6 13:28/M
762 Stephanie Metzger 1350 39 F 52 35-39 42:03.2 44:27.7 13:31/M
763 Kathleen Jackson Doctor Directory 370 46 F 28 45-49 42:04.0 42:33.1 13:32/M
764 Jamie Burchfield Linamar 729 38 F 53 35-39 42:06.1 43:17.7 13:32/M
765 Amber Palladino Doctor Directory 374 34 F 72 30-34 42:10.0 42:30.8 13:34/M
766 Ana Prendergast 1354 32 F 73 30-34 42:16.0 42:51.5 13:35/M
767 Michelle Viera Roberts & Stevens, P.A. 948 40 F 37 40-44 42:16.3 43:15.1 13:35/M
768 Cody Smith Zealandia Capital, Inc. 1092 24 M 24 20-24 42:24.7 43:09.3 13:38/M
769 Russell Edwards City of Asheville 245 51 M 31 50-54 42:45.8 44:07.0 13:45/M
770 Michelle Harris City of Asheville 253 43 F 38 40-44 42:48.3 43:37.2 13:46/M
771 Molly McQuillan Highland Brewing 1375 28 F 75 25-29 42:49.5 43:25.9 13:46/M
772 Liza Vancauwenbergh Highland Brewing 1374 30 F 74 30-34 42:50.0 43:25.9 13:46/M
773 Lori Rasmussen Highland Brewing 1377 40 F 39 40-44 42:50.7 43:25.8 13:46/M
774 Katie Gravatt Highland Brewing 1376 25 F 76 25-29 42:51.1 43:26.2 13:47/M
775 Matt McComish Highland Brewing Company 1279 29 M 66 25-29 42:51.2 43:25.8 13:47/M
776 Bud Hughes Johnson Price Sprinkle PA 661 60 M 9 60-64 42:52.1 44:59.3 13:47/M
777 Erin Pope HomeTrust Bank 555 31 F 75 30-34 42:52.4 44:12.7 13:47/M
778 Kellie Kanipe Johnson Price Sprinkle PA 690 45 F 29 45-49 42:52.7 47:27.6 13:47/M
779 Melody Cox City of Asheville 250 48 F 30 45-49 42:54.3 43:40.6 13:48/M
780 Amanda Ayers City of Asheville 249 24 F 24 20-24 42:54.7 43:40.4 13:48/M
781 Rebecca Cox Festiva Development Group 439 34 F 76 30-34 43:01.6 45:12.7 13:50/M
782 Amanda Metcalf Festiva Development Group 440 25 F 77 25-29 43:02.0 45:12.9 13:50/M
783 Meredith Williams Tonsofrentals.com 1032 29 F 78 25-29 43:07.0 46:23.0 13:52/M
784 Mike Delzell Zealandia Capital, Inc. 1093 30 M 70 30-34 43:09.1 44:57.0 13:52/M
785 Mike Lewis McGill Associates 1149 54 M 32 50-54 43:10.0 43:48.4 13:53/M
786 Alena Mayberry Johnson Price Sprinkle PA 631 7 F 3 1- 9 43:13.8 45:19.4 13:54/M
787 Nicole Remaley Mission Hospital 1173 37 F 54 35-39 43:15.8 44:03.4 13:54/M
788 Kenny Lindsey Eaton Corporation 418 51 M 33 50-54 43:16.5 43:21.3 13:55/M
789 Mary Ann Schiller Biltmore Estate / The Biltmore 112 0 F 5 0- 0 43:17.3 44:07.9 13:55/M
790 Selina Banks The Grand Bohemian Hotel 997 23 F 25 20-24 43:17.5 44:29.9 13:55/M
791 Anne Brown Biltmore Estate / The Biltmore 109 55 F 14 55-59 43:18.0 44:10.0 13:55/M
792 Lindsey Mashburn The Grand Bohemian Hotel 1002 30 F 77 30-34 43:18.3 44:30.1 13:55/M
793 Kenneth Jenzen The Givens Estates. Inc. 971 31 M 71 30-34 43:23.8 46:02.7 13:57/M
794 Hevelyn Freck PLI 921 24 F 26 20-24 43:24.1 44:31.0 13:57/M
795 Amanda Bauman United Way of Asheville & Bunc 1033 31 F 78 30-34 43:25.1 44:34.5 13:58/M
796 Anna Gettles United Way of Asheville & Bunc 1035 29 F 79 25-29 43:25.2 44:33.5 13:58/M
797 Nancy Hamilton HomeTrust Bank 545 52 F 17 50-54 43:25.3 45:38.5 13:58/M
798 Stephanie Emerson Johnson Price Sprinkle PA 654 38 F 55 35-39 43:26.0 47:29.0 13:58/M
799 Meghan Latak Blue Ridge Bone & Joint Clinic 163 23 F 27 20-24 43:27.1 43:50.1 13:58/M
800 Kim Perry i play 582 27 F 80 25-29 43:35.5 44:54.6 14:01/M
 
Place Name COMPANY Bib No Age Gender Age Group Chip Time Gun Time Pace
801 Ryan Donahue Zealandia Capital, Inc. 1094 38 M 79 35-39 43:39.3 45:07.5 14:02/M
802 Maria Pilos Johnson Price Sprinkle PA 693 52 F 18 50-54 43:39.4 48:09.7 14:02/M
803 Molly Duggan Lenoir-Rhyne University - Cent 722 62 F 7 60-64 43:40.3 44:08.0 14:02/M
804 Laura Melear 1158 35 F 56 35-39 43:41.0 44:27.8 14:03/M
805 Robert Baer Tonsofrentals.com 1029 47 M 39 45-49 43:42.6 44:39.6 14:03/M
806 Laurrell Smith Mountain Area Health Education 832 40 F 40 40-44 43:52.3 45:56.1 14:06/M
807 Chris Jury Mountain Area Health Education 855 34 M 72 30-34 43:53.4 44:17.9 14:07/M
808 Jessica Baker HomeTrust Bank 569 34 F 79 30-34 43:53.5 45:12.4 14:07/M
809 Melissa Jury Mountain Area Health Education 856 27 F 81 25-29 43:56.0 44:20.5 14:08/M
810 Whitney Smith De Vargas Biltmore Estate / The Biltmore 107 39 F 57 35-39 43:56.9 45:25.9 14:08/M
811 Jacob Desmeules NTCA-The Rural Broadband Assoc 869 26 M 67 25-29 44:00.8 44:57.3 14:09/M
812 Jannice Ashley City of Asheville 301 49 F 31 45-49 44:07.8 44:45.3 14:11/M
813 Katie Garner Mission Health 758 32 F 80 30-34 44:09.0 45:29.7 14:12/M
814 Mia Paahlman HomeTrust Bank 551 37 F 58 35-39 44:15.6 44:52.2 14:14/M
815 Christy Wilson 1197 38 F 59 35-39 44:17.1 45:13.2 14:14/M
816 Elizabeth Buchanan Mission Health 769 46 F 32 45-49 44:18.0 45:18.8 14:15/M
817 Ashley Ruffini Doctor Directory 1321 29 F 82 25-29 44:19.3 44:51.4 14:15/M
818 Kathy Rodes Johnson Price Sprinkle PA 676 58 F 15 55-59 44:24.1 45:46.8 14:17/M
819 Sarah Zink Aeroflow Healthcare, Inc. 4 31 F 81 30-34 44:24.2 49:19.7 14:17/M
820 Sok Heang Cheng Johnson Price Sprinkle PA 665 36 F 60 35-39 44:26.0 45:47.9 14:17/M
821 Debbie Fisher 1134 42 F 41 40-44 44:28.2 45:24.5 14:18/M
822 Brenda Benik Mountain Area Health Education 841 53 F 19 50-54 44:29.4 46:52.4 14:18/M
823 Robin Stickney Insurance Service of Asheville 604 50 F 20 50-54 44:31.5 46:21.1 14:19/M
824 Valerie Williams Mountain Area Health Education 824 32 F 82 30-34 44:31.6 46:52.5 14:19/M
825 Brad Hughes HomeTrust Bank 561 26 M 68 25-29 44:35.4 45:52.2 14:20/M
826 Debrah Davenport Linamar 733 40 F 42 40-44 44:35.9 45:49.4 14:20/M
827 Jeff Lehmer Doctor Directory 372 55 M 20 55-59 44:36.4 44:51.6 14:20/M
828 Kendra Holland 1141 32 F 83 30-34 44:38.9 46:19.0 14:21/M
829 Drew Shelfer BCDHHS 86 40 M 65 40-44 44:39.9 46:21.3 14:21/M
830 Christina Stenhouse BCDHHS 87 42 F 43 40-44 44:40.2 46:20.7 14:22/M
831 Calisa Mills HomeTrust Bank 562 35 F 61 35-39 44:41.5 45:59.2 14:22/M
832 Fred Bailey Bonar Inc 1117 60 M 10 60-64 44:49.3 46:50.1 14:25/M
833 Becky Hamrick Johnson Price Sprinkle PA 649 49 F 33 45-49 44:55.8 45:16.5 14:27/M
834 Natalie Kramer Asheville JCC 40 49 F 34 45-49 44:57.9 45:43.4 14:27/M
835 Micki Turner GE Aviation 496 35 F 62 35-39 44:58.8 57:26.6 14:28/M
836 Caitlin Byrd Asheville Citizen-Times Publis 29 24 F 28 20-24 45:00.9 45:50.1 14:28/M
837 Emma Tissot Mountain Physical Therapy 863 10 F 7 10-14 45:01.7 45:56.0 14:28/M
838 Shannon Ginn French Broad Chocolates 478 45 F 35 45-49 45:02.3 46:23.3 14:29/M
839 Chryssa Clayton Blue Ridge Bone & Joint Clinic 165 45 F 36 45-49 45:04.1 45:27.1 14:29/M
840 Lachicotte Zemp Roberts & Stevens, PA 952 50 M 34 50-54 45:06.9 45:58.8 14:30/M
841 Brooke Brownlow MAHEC 1218 37 F 63 35-39 45:07.4 45:35.0 14:30/M
842 Leann Morrow Blue Ridge Bone & Joint Clinic 168 38 F 64 35-39 45:09.1 45:32.0 14:31/M
843 Jennifer Hester CarePartners 1274 40 F 44 40-44 45:13.0 45:41.4 14:32/M
844 Susan Stevens Mission Health 772 48 F 37 45-49 45:21.7 46:22.1 14:35/M
845 Traci Chasteen Mountain Area Health Education 830 45 F 38 45-49 45:23.3 53:47.0 14:36/M
846 Marvina Lyda weight watchers 1277 38 F 65 35-39 45:24.1 47:12.5 14:36/M
847 Sharlotte Lyda weight watchers 1278 7 F 4 1- 9 45:25.3 47:14.0 14:36/M
848 Debbie Manley MAHEC 1219 56 F 16 55-59 45:34.1 45:50.0 14:39/M
849 Bernardo Porras United Way of Asheville & Bunc 1039 38 M 80 35-39 45:35.6 47:12.2 14:39/M
850 Davey Ingram Biltmore Estate / The Biltmore 1221 18 M 6 15-19 45:36.8 50:44.3 14:40/M
851 Michelle Bennett United Way of Asheville & Bunc 1037 30 F 84 30-34 45:37.5 47:13.3 14:40/M
852 Kathren Combs Aeroflow Healthcare, Inc. 1 29 F 83 25-29 45:45.9 47:50.7 14:43/M
853 Sarah Spooner Mosaix Group 787 34 F 85 30-34 45:47.5 47:52.0 14:43/M
854 Gabby McNeely 1157 32 F 86 30-34 45:54.3 47:45.9 14:46/M
855 Deane Chestnutt Doctor Directory 366 33 F 87 30-34 45:57.5 47:01.5 14:46/M
856 Kelly Williams City of Asheville 260 53 F 21 50-54 46:00.1 47:07.8 14:47/M
857 Megan Hicks 1366 26 F 84 25-29 46:05.4 46:26.8 14:49/M
858 China Tickle City of Asheville 312 29 F 85 25-29 46:12.1 47:48.0 14:51/M
859 Chris Jumper City of Asheville 310 40 M 66 40-44 46:13.7 47:48.7 14:52/M
860 Kelly Howard i play 578 32 F 88 30-34 46:13.7 48:35.6 14:52/M
861 Kim Kovacs PLI 919 56 F 17 55-59 46:15.3 48:22.9 14:52/M
862 Laura Arnall 1114 40 F 45 40-44 46:15.6 47:53.3 14:52/M
863 Jessica Dow Doctor Directory 358 30 F 89 30-34 46:18.6 48:32.9 14:53/M
864 David Gantt David Gantt Law Offices 1138 58 M 21 55-59 46:18.9 48:07.2 14:53/M
865 Laura Van Marter i play 579 23 F 29 20-24 46:19.1 48:35.6 14:54/M
866 Nicole Jamison Patton Hospitality Management 899 29 F 86 25-29 46:20.6 47:48.6 14:54/M
867 Brian Leatherwood Eaton Corporation 423 37 M 81 35-39 46:20.9 55:09.5 14:54/M
868 David Buchanan Johnson Price Sprinkle PA 697 41 M 67 40-44 46:23.0 47:22.1 14:55/M
869 Holly Webb Johnson Price Sprinkle PA 700 32 F 90 30-34 46:24.3 47:21.6 14:55/M
870 Alex Snyder Johnson Price Sprinkle PA 648 13 M 15 10-14 46:27.9 47:37.8 14:56/M
871 Margo Searson Cloninger, Barbour, Searson, & 316 54 F 22 50-54 46:28.7 48:21.9 14:56/M
872 Kristy Freeman Mountain Area Health Education 831 45 F 39 45-49 46:29.7 46:46.0 14:57/M
873 Joanna Stewart Johnson Price Sprinkle PA 679 42 F 46 40-44 46:37.4 47:29.5 14:59/M
874 Kelly Stewart Johnson Price Sprinkle PA 680 42 M 68 40-44 46:38.3 47:29.7 15:00/M
875 Garrett Martin Johnson Price Sprinkle PA 687 46 M 40 45-49 46:38.6 51:08.4 15:00/M
876 Leslie Pierce Cloninger, Barbour, Searson, & 1166 22 F 30 20-24 46:39.4 48:31.4 15:00/M
877 Phyllis Ray Doctor Directory 379 54 F 23 50-54 46:41.4 47:45.0 15:01/M
878 Amanda Buchanan City of Asheville 305 36 F 66 35-39 46:48.4 47:14.3 15:03/M
879 Shannon Baddeley MAHEC 1237 38 F 67 35-39 46:48.9 47:48.9 15:03/M
880 Beth Kasper HomeTrust Bank 546 39 F 68 35-39 46:50.4 47:48.3 15:04/M
881 Emily Smith Biltmore Estate / The Biltmore 100 25 F 87 25-29 46:50.6 48:41.4 15:04/M
882 Kathryn Pekarne Biltmore Estate / The Biltmore 98 29 F 88 25-29 46:51.6 48:41.6 15:04/M
883 Justin Arnall 1113 39 M 82 35-39 46:52.3 48:31.6 15:04/M
884 Mark Bloomfield Deltec Homes 333 44 M 69 40-44 46:53.4 47:41.7 15:05/M
885 Bonnie Hamrick Johnson Price Sprinkle PA 646 56 F 18 55-59 46:59.0 48:10.0 15:06/M
886 Mary Williams Matthews Johnson Price Sprinkle PA 640 59 F 19 55-59 47:00.2 48:10.1 15:07/M
887 Jeremy Goldstein G/M Property Group, LLC 483 43 M 70 40-44 47:04.4 48:33.6 15:08/M
888 Moses Goldstein 1294 8 M 2 1- 9 47:05.8 48:34.2 15:08/M
889 Theresa Thomason Linamar 736 52 F 24 50-54 47:08.8 48:22.2 15:09/M
890 Erin Scanio Johnson Price Sprinkle PA 660 39 F 69 35-39 47:09.7 51:39.9 15:10/M
891 James Hall Johnson Price Sprinkle PA 657 37 M 83 35-39 47:10.6 51:40.1 15:10/M
892 Erin Ratliff Mountain Area Health Education 836 31 F 91 30-34 47:11.1 47:33.1 15:10/M
893 Stehanie Carver Bonar Inc 178 46 F 40 45-49 47:12.8 49:21.8 15:11/M
894 Wendy Albury First Bank 449 47 F 41 45-49 47:13.1 47:38.3 15:11/M
895 Amy Huntsman Will Run for Beer 1071 37 F 70 35-39 47:19.1 48:40.5 15:13/M
896 Sara Dobson genova diagnostics 505 25 F 89 25-29 47:21.0 49:49.9 15:14/M
897 Robin Currin City of Asheville 302 54 F 25 50-54 47:21.3 49:16.4 15:14/M
898 George Currin Currin & Currin 1132 53 M 35 50-54 47:21.7 49:16.2 15:14/M
899 Kimberly Waggle FLS Energy 475 33 F 92 30-34 47:22.0 48:53.7 15:14/M
900 Rebecca Barnwell City of Asheville 257 50 F 26 50-54 47:22.6 48:30.4 15:14/M
 
Place Name COMPANY Bib No Age Gender Age Group Chip Time Gun Time Pace
901 Pai Liu MAHEC 1249 29 F 90 25-29 47:23.6 47:51.0 15:14/M
902 Florie Rogers Webb Insurance 1064 60 F 8 60-64 47:24.4 47:58.4 15:14/M
903 Mychal Bacoate HomeTrust Bank 565 30 M 73 30-34 47:24.6 48:31.6 15:14/M
904 Jay Behrens Johnson Price Sprinkle PA 689 55 M 22 55-59 47:27.0 52:11.2 15:15/M
905 Maggie Schmidt The Givens Estates. Inc. 979 30 F 93 30-34 47:35.8 48:48.8 15:18/M
906 Jared Yates HomeTrust Bank 568 32 M 74 30-34 47:35.9 48:43.0 15:18/M
907 Parker King The Grand Bohemian Hotel 1015 28 M 69 25-29 47:38.1 48:51.2 15:19/M
908 Sonnya Fanale HomeTrust Bank 550 38 F 71 35-39 47:40.4 48:44.7 15:20/M
909 Mary Kiss City of Asheville 255 48 F 42 45-49 47:42.7 48:31.3 15:20/M
910 Jonna Bradoc NTCA-The Rural Broadband Assoc 873 59 F 20 55-59 47:45.2 49:55.1 15:21/M
911 Don Thompson Deltec Homes 336 65 M 3 65-69 47:45.5 48:39.2 15:21/M
912 Randy Rhodes City of Asheville 300 0 M 5 0- 0 47:55.7 49:02.3 15:24/M
913 Brittany Staszak FLS Energy 471 23 F 31 20-24 47:57.5 49:22.5 15:25/M
914 Lisa Atkins Mountain Area Health Education 829 43 F 47 40-44 48:01.1 48:01.1 15:26/M
915 Tammy Camp MAHEC 1245 56 F 21 55-59 48:02.2 48:02.2 15:27/M
916 Brianna Gilliland The Givens Estates. Inc. 977 28 F 91 25-29 48:04.7 49:17.8 15:27/M
917 Lisa Smith The Givens Estates. Inc. 980 34 F 94 30-34 48:05.0 49:18.3 15:28/M
918 Wilma Fuentes Mountain Area Health Education 823 64 F 9 60-64 48:05.6 48:48.1 15:28/M
919 Cynthia Robinson MAHEC 1251 44 F 48 40-44 48:17.3 50:33.4 15:32/M
920 Patricia Johnson Roberts & Stevens, P.A. 947 50 F 27 50-54 48:17.6 49:16.7 15:32/M
921 Jose' Orench Mountain Area Health Education 844 57 M 23 55-59 48:18.2 50:33.6 15:32/M
922 Lindsay Hanson 1367 38 F 72 35-39 48:27.0 48:48.0 15:35/M
923 Alana Hanson 1365 9 F 5 1- 9 48:28.8 48:49.2 15:35/M
924 Angele Mainhart Mountain Area Health Education 842 32 F 95 30-34 48:29.3 50:51.8 15:35/M
925 Amanda Greene Mountain Area Health Education 794 30 F 96 30-34 48:31.0 50:51.7 15:36/M
926 Cat Kessler Asheville Area Chamber of Comm 14 29 F 92 25-29 48:34.8 49:25.8 15:37/M
927 Lauren Harris Asheville Area Chamber of Comm 13 28 F 93 25-29 48:35.0 49:25.8 15:37/M
928 Patty Mandaro FLS Energy 469 43 F 49 40-44 48:37.4 50:05.0 15:38/M
929 Kerry Watkins Deltec Homes 339 45 F 43 45-49 48:42.7 49:56.0 15:40/M
930 Bill Hart City of Asheville 246 49 M 41 45-49 48:47.6 50:22.9 15:41/M
931 Jim D'Entremont Asheville Security Systems 53 59 M 24 55-59 48:58.1 51:15.0 15:45/M
932 Winnie Titchener Biltmore Estate / The Biltmore 120 31 F 97 30-34 49:08.7 51:28.4 15:48/M
933 Constance Richards The Grand Bohemian Hotel 999 48 F 44 45-49 49:11.1 50:42.2 15:49/M
934 Noel Cambell City of Asheville 234 40 M 71 40-44 49:14.3 50:20.1 15:50/M
935 Tracy Vanduzen FLS Energy 472 32 F 98 30-34 49:17.1 50:43.7 15:51/M
936 Nikki Nelson FLS Energy 470 36 F 73 35-39 49:18.1 50:43.5 15:51/M
937 David Ingram Biltmore Estate / The Biltmore 1222 46 M 42 45-49 49:23.8 54:31.5 15:53/M
938 Donna Reeves Coldwell Banker King 320 44 F 50 40-44 49:24.8 50:09.8 15:53/M
939 Sassy Hudson 1143 40 F 51 40-44 49:28.2 50:22.4 15:54/M
940 Shelia McKinley 1155 53 F 28 50-54 49:29.6 50:24.1 15:55/M
941 Tony Craig Silver-Line Plastics 953 61 M 11 60-64 49:31.1 50:24.7 15:55/M
942 Kirstie Thompson Mountain Area Health Education 796 25 F 94 25-29 49:34.4 49:49.5 15:56/M
943 Dann Newfont Bonar Inc 1160 50 M 36 50-54 49:34.9 53:43.9 15:56/M
944 Beth Walton Asheville Citizen-Times Publis 31 32 F 99 30-34 49:36.8 50:27.7 15:57/M
945 Renee Jolly Biltmore Estate / The Biltmore 119 45 F 45 45-49 49:37.9 51:58.3 15:57/M
946 Ashlie Groff Aeroflow Healthcare, Inc. 2 34 F 100 30-34 49:39.1 51:48.8 15:58/M
947 James Dwyer The Electronic Office 1133 23 M 25 20-24 49:43.3 50:26.7 15:59/M
948 Alex Newman Electronic Office 426 41 M 72 40-44 49:46.3 50:31.8 16:00/M
949 Angela Reimels Johnson Price Sprinkle PA 633 38 F 74 35-39 49:47.2 50:04.0 16:00/M
950 Savanna Reimels Johnson Price Sprinkle PA 635 8 F 6 1- 9 49:47.3 50:03.6 16:00/M
951 Melesia Hernandez 1332 55 F 22 55-59 49:49.5 50:00.2 16:01/M
952 Andreiah Carter MAHEC 1241 11 F 8 10-14 49:57.9 54:06.7 16:04/M
953 Micah Richardson Biltmore Estate / The Biltmore 99 35 F 75 35-39 50:03.6 51:54.2 16:06/M
954 Natalie Oschrin Biltmore Estate / The Biltmore 97 25 F 95 25-29 50:03.7 51:54.9 16:06/M
955 Susan Herzog Webb Insurance 1059 37 F 76 35-39 50:05.1 50:37.4 16:06/M
956 Janice Adams Webb Insurance 1057 58 F 23 55-59 50:05.4 50:38.5 16:06/M
957 Abigail Riley City of Asheville 268 31 F 101 30-34 50:18.0 51:21.2 16:10/M
958 Ashley Lategan City of Asheville 270 28 F 96 25-29 50:18.5 51:57.0 16:10/M
959 Heather Minks City of Asheville 272 39 F 77 35-39 50:19.2 51:57.4 16:11/M
960 Jennifer Haynes Eaton Corporation 422 47 F 46 45-49 50:21.9 59:11.0 16:11/M
961 Sarah Rosario Biltmore Estate / The Biltmore 111 40 F 52 40-44 50:30.1 52:04.2 16:14/M
962 Jennifer Catron 1268 46 F 47 45-49 50:34.5 50:49.7 16:16/M
963 Katie Catron 1349 20 F 32 20-24 50:34.6 50:49.6 16:16/M
964 Matt Andrews PLI 929 41 M 73 40-44 50:36.7 51:23.8 16:16/M
965 Pamela Brown Aeroflow Healthcare, Inc. 5 33 F 102 30-34 50:38.4 51:48.4 16:17/M
966 Alyson Coxie PLI 917 34 F 103 30-34 50:40.8 51:28.7 16:17/M
967 Darlene Lohman HomeTrust Bank 548 56 F 24 55-59 50:49.3 53:04.4 16:20/M
968 Mackenzie Martin Johnson Price Sprinkle PA 688 13 F 9 10-14 50:52.7 55:24.7 16:21/M
969 Addison Martin Johnson Price Sprinkle PA 686 47 F 48 45-49 50:52.9 55:24.0 16:21/M
970 Laura Morgan Biltmore Estate / The Biltmore 132 26 F 97 25-29 50:53.3 51:33.4 16:22/M
971 Dylan McKnight Biltmore Estate / The Biltmore 131 24 M 26 20-24 50:53.9 51:34.4 16:22/M
972 Jose' Flores i play 590 55 M 25 55-59 50:54.0 53:15.8 16:22/M
973 Patience Lanford Biltmore Estate / The Biltmore 1276 37 F 78 35-39 51:00.5 52:33.9 16:24/M
974 Hector Estrada NTCA-The Rural Broadband Assoc 885 24 M 27 20-24 51:05.2 53:11.1 16:26/M
975 Lauren Rash GE Aviation 500 37 F 79 35-39 51:07.6 58:08.8 16:26/M
976 Cindy Cornett Biltmore Estate / The Biltmore 141 56 F 25 55-59 51:16.4 52:34.9 16:29/M
977 Guy Cooper Eaton Corporation 421 50 M 37 50-54 51:22.5 52:32.4 16:31/M
978 Ruth Tyler Eaton Corporation 424 48 F 49 45-49 51:23.5 52:32.8 16:31/M
979 Audrey Sanders Bonar Inc 176 48 F 50 45-49 51:34.5 53:44.0 16:35/M
980 Megan Butler Patton Hospitality Management 897 25 F 98 25-29 51:44.9 53:13.0 16:38/M
981 Jen Fry Patton Hospitality Management 1135 0 F 6 0- 0 51:47.5 53:15.4 16:39/M
982 Jennifer Karr genova diagnostics 506 26 F 99 25-29 51:52.5 54:22.1 16:41/M
983 Linda McLachlen genova diagnostics 507 43 F 53 40-44 51:52.9 54:23.3 16:41/M
984 Brenda Cooke Deltec Homes 334 53 F 29 50-54 51:55.1 54:20.2 16:42/M
985 Mike Kirchmeyer Insurance Service of Asheville 611 57 M 26 55-59 51:58.5 53:03.5 16:43/M
986 Judy Woodard Deerfield Episcopal Retirement 332 55 F 26 55-59 52:05.9 54:09.3 16:45/M
987 Debbie Wilbanks Deerfield Episcopal Retirement 331 36 F 80 35-39 52:06.3 54:09.5 16:45/M
988 Brandie Burleson The Bair Foundation 965 30 F 104 30-34 52:08.7 53:32.1 16:46/M
989 Terri Ippolito Mountain Area Health Education 790 48 F 51 45-49 52:11.1 1:00:29.0 16:47/M
990 Jessica Poston Mountain Area Health Education 792 31 F 105 30-34 52:13.8 54:14.9 16:47/M
991 Raryn Smith MAHEC 1212 33 F 106 30-34 52:16.3 54:18.9 16:48/M
992 Emily Carter Festiva Development Group 438 30 F 107 30-34 52:19.6 53:14.6 16:49/M
993 Katy Dowdalls Biltmore Estate / The Biltmore 130 66 F 1 65-69 52:19.7 53:01.8 16:49/M
994 James Blecke Biltmore Estate / The Biltmore 129 38 M 84 35-39 52:20.7 53:01.8 16:50/M
995 Sue Stigleman Mountain Area Health Education 815 61 F 10 60-64 52:28.2 54:30.9 16:52/M
996 Trish Matzke MAHEC 1201 45 F 52 45-49 52:29.7 53:18.5 16:53/M
997 Elizabeth Shelton MAHEC 1204 38 F 81 35-39 52:30.4 53:19.5 16:53/M
998 Greg Jones Mission health 775 45 M 43 45-49 52:33.6 53:11.3 16:54/M
999 Donny Ducker Mission health 774 50 M 38 50-54 52:34.9 53:12.1 16:54/M
1000 Denese Kastle HomeTrust Bank 567 52 F 30 50-54 52:35.0 53:43.5 16:54/M
 
Place Name COMPANY Bib No Age Gender Age Group Chip Time Gun Time Pace
1001 Claire Cook MAHEC 1213 35 F 82 35-39 52:37.0 54:39.0 16:55/M
1002 Rachel Arrandale Insurance Service of Asheville 597 31 F 108 30-34 52:40.6 53:44.8 16:56/M
1003 Debra Sale Insurance Service of Asheville 612 41 F 54 40-44 52:43.6 53:47.9 16:57/M
1004 Sandy Mashburn Insurance Service of Asheville 602 64 F 11 60-64 52:45.0 53:50.8 16:58/M
1005 Eleanor Powers 1168 70 F 1 70-74 52:45.8 53:20.4 16:58/M
1006 Rosie Kooles Insurance Service of Asheville 601 62 F 12 60-64 52:46.0 53:51.8 16:58/M
1007 Ffyfe Aschenbrenner 1115 52 F 31 50-54 52:46.1 53:19.7 16:58/M
1008 Linda Hughes Johnson Price Sprinkle PA 630 57 F 27 55-59 52:52.1 54:15.5 17:00/M
1009 April Westmorland Johnson Price Sprinkle PA 662 38 F 83 35-39 52:53.1 54:32.1 17:00/M
1010 Sarah Byrne PLI 926 40 F 55 40-44 53:08.3 53:55.4 17:05/M
1011 Joy Brockman PLI 930 50 F 32 50-54 53:14.7 53:55.7 17:07/M
1012 Pat Hock MAHEC 1286 29 F 100 25-29 53:16.9 53:44.0 17:08/M
1013 Martha Burrell Weight Watchers 1123 67 F 2 65-69 53:17.0 55:08.2 17:08/M
1014 Dave Capps Johnson Price Sprinkle PA 683 52 M 39 50-54 53:19.9 54:44.6 17:09/M
1015 Shannon Hutchinson Johnson Price Sprinkle PA 659 38 F 84 35-39 53:20.6 57:27.3 17:09/M
1016 Kathy Biddix PLI 925 59 F 28 55-59 53:24.1 54:08.1 17:10/M
1017 Joan Roberts PLI 928 0 F 7 0- 0 53:24.2 54:08.3 17:10/M
1018 Dina Desantis MAHEC 1284 46 F 53 45-49 53:28.0 53:54.5 17:12/M
1019 Amy McCallie Doctor Directory 359 34 F 109 30-34 53:30.4 55:34.0 17:12/M
1020 Ellie Hutchinson Johnson Price Sprinkle PA 670 6 F 7 1- 9 53:32.2 57:27.3 17:13/M
1021 Lori Pinkerton PBI INC 907 43 F 56 40-44 53:38.8 54:30.4 17:15/M
1022 Suzanne Landis MAHEC 1244 62 F 13 60-64 53:49.1 54:23.3 17:18/M
1023 Melissa Baker Mountain Area Health Education 821 39 F 85 35-39 53:49.9 54:23.9 17:18/M
1024 Jody Laney HomeTrust Bank 547 40 F 57 40-44 53:57.2 56:11.6 17:21/M
1025 Austin Emerson Johnson Price Sprinkle PA 653 36 M 85 35-39 54:02.4 58:00.3 17:22/M
1026 Charlotte Emerson Johnson Price Sprinkle PA 669 5 F 8 1- 9 54:02.9 58:01.1 17:22/M
1027 Joann Vanderhagan MAHEC 1215 40 F 58 40-44 54:06.7 54:32.5 17:24/M
1028 Terri March Mountain Area Health Education 818 57 F 29 55-59 54:09.3 56:25.1 17:25/M
1029 Deborah Calhoun Mountain Area Health Education 822 45 F 54 45-49 54:09.4 56:25.7 17:25/M
1030 Tia Keith City of Asheville 275 43 F 59 40-44 54:13.0 55:45.1 17:26/M
1031 Chandra Burgher Asheville Savings Bank 49 50 F 33 50-54 54:15.8 55:58.7 17:27/M
1032 Brad Ward Asheville Savings Bank 52 61 M 12 60-64 54:16.5 55:59.4 17:27/M
1033 Rosalyn Wasserman Mountain Area Health Education 820 51 F 34 50-54 54:18.1 56:34.3 17:28/M
1034 Christine Ingle GE Aviation 499 41 F 60 40-44 54:20.2 56:34.8 17:28/M
1035 Traci Matthews MAHEC 1247 46 F 55 45-49 54:21.1 57:45.2 17:29/M
1036 Sandy Fowlkes NTCA-The Rural Broadband Assoc 874 37 F 86 35-39 54:22.1 1:04:11.9 17:29/M
1037 Sandra Price NTCA-The Rural Broadband Assoc 879 44 F 61 40-44 54:22.8 1:04:11.3 17:29/M
1038 Genevieve Bieniosek Biltmore Estate / The Biltmore 117 32 F 110 30-34 54:31.7 56:51.0 17:32/M
1039 Karis Price Lenoir-Rhyne University - Cent 723 14 F 10 10-14 54:33.5 56:07.4 17:32/M
1040 Kim Price Lenoir-Rhyne University - Cent 724 46 F 56 45-49 54:33.6 56:07.2 17:32/M
1041 Tiffany Woods MAHEC 1216 42 F 62 40-44 54:40.0 54:40.0 17:35/M
1042 Rebecca Miller PLI 940 30 F 111 30-34 54:41.3 55:21.7 17:35/M
1043 Robert Keith City of Asheville 274 44 M 74 40-44 54:44.4 56:16.5 17:36/M
1044 Sharon Owen Sisters of Mercy Urgent Care, 960 59 F 30 55-59 54:45.5 56:05.5 17:36/M
1045 Norma Burleson 1120 76 F 1 75-79 54:46.0 56:36.0 17:37/M
1046 Judy McDonough 1152 72 F 2 70-74 54:46.9 56:35.5 17:37/M
1047 Corie Bell Sisters of Mercy Urgent Care, 961 31 F 112 30-34 54:48.2 56:05.9 17:37/M
1048 Ashley Powell genova diagnostics 508 23 F 33 20-24 54:53.9 57:24.2 17:39/M
1049 Sarajane Case French Broad Chocolates 477 29 F 101 25-29 54:55.7 56:16.0 17:39/M
1050 Missy Baker PlumDog Financial 941 49 F 57 45-49 55:30.0 57:21.9 17:51/M
1051 Cathy Stewart MAHEC 1252 44 F 63 40-44 55:38.8 56:09.9 17:53/M
1052 Paul Hollier Daniel Boone Council, Boy Scou 1142 33 M 75 30-34 55:41.2 57:59.7 17:54/M
1053 Sara Hollier HomeTrust Bank 554 28 F 102 25-29 55:41.6 57:59.2 17:54/M
1054 John Hock Mountain Area Health Education 851 M 6 0- 0 55:49.4 56:10.1 17:57/M
1055 Carla Burleson Johnson Price Sprinkle PA 682 27 F 103 25-29 55:54.3 57:19.3 17:58/M
1056 Virginia Ballard Johnson Price Sprinkle PA 685 17 F 7 15-19 55:54.8 57:19.4 17:58/M
1057 Nicole Ballard Johnson Price Sprinkle PA 681 26 F 104 25-29 55:56.2 57:20.4 17:59/M
1058 Alex Patton PBI INC 905 27 M 70 25-29 56:00.1 56:51.5 18:00/M
1059 Carllett Lennon 1319 35 M 86 35-39 56:01.2 56:50.8 18:01/M
1060 Brittanie Staggs PBI INC 908 28 F 105 25-29 56:01.6 56:51.7 18:01/M
1061 Audrey Frost Biltmore Estate / The Biltmore 143 54 F 35 50-54 56:02.0 57:12.5 18:01/M
1062 Shelby Walker PLI 911 47 F 58 45-49 56:02.0 56:47.2 18:01/M
1063 Julia Burnette HomeTrust Bank 566 48 F 59 45-49 56:03.0 57:23.2 18:01/M
1064 Julie Perley Biltmore Estate / The Biltmore 144 56 F 31 55-59 56:03.6 57:13.7 18:01/M
1065 Rick Thomas City of Asheville 247 61 M 13 60-64 56:08.1 57:49.3 18:03/M
1066 Reggie Widemon City of Asheville 248 63 M 14 60-64 56:08.3 57:49.7 18:03/M
1067 Ronald Gough Weight Watchers 1139 68 M 4 65-69 56:20.1 58:11.2 18:07/M
1068 Debbie Bailey Bonar Inc 177 63 F 14 60-64 56:22.6 58:22.9 18:07/M
1069 Becky Rice The Givens Estates. Inc. 984 36 F 87 35-39 56:30.0 57:46.0 18:10/M
1070 Joy Clifton The Givens Estates. Inc. 981 42 F 64 40-44 56:30.1 57:46.1 18:10/M
1071 Elizabeth Borchers Biltmore Estate / The Biltmore 133 29 F 106 25-29 56:32.0 57:14.3 18:11/M
1072 Jill Rutherford Biltmore Estate / The Biltmore 136 46 F 60 45-49 56:33.1 57:15.0 18:11/M
1073 Courtney Bushway J.Crew 617 40 F 65 40-44 56:37.4 57:05.8 18:12/M
1074 Lori Caldwell Biltmore Estate / The Biltmore 102 50 F 36 50-54 56:55.8 58:07.2 18:18/M
1075 Heidi Killian PLI 931 43 F 66 40-44 57:00.0 57:37.1 18:20/M
1076 Ally Moore Zealandia Capital, Inc. 1099 25 F 107 25-29 57:11.5 58:59.4 18:23/M
1077 Julie Hanlon Zealandia Capital, Inc. 1098 41 F 67 40-44 57:13.0 58:59.8 18:24/M
1078 Tyawna Duncan genova diagnostics 502 38 F 88 35-39 57:14.9 59:12.0 18:24/M
1079 Elsy Argueta genova diagnostics 501 26 F 108 25-29 57:16.6 59:12.8 18:25/M
1080 Nancy Smith McGill Associates 1180 49 F 61 45-49 57:19.0 59:44.7 18:26/M
1081 Leo Smith McGill Associates 744 50 M 40 50-54 57:20.4 59:44.4 18:26/M
1082 Charlie Humes FLS Energy 463 31 M 76 30-34 57:21.4 58:22.2 18:26/M
1083 Holly Poole MAHEC 1202 41 F 68 40-44 57:25.1 59:38.4 18:28/M
1084 Ashley Bandieramonte i play 581 27 F 109 25-29 57:33.2 59:50.3 18:30/M
1085 Katie Robinson i play 584 28 F 110 25-29 57:34.5 59:50.5 18:31/M
1086 Mary Herbert Dixon Hughes Goodman LLP 349 45 F 62 45-49 57:46.1 59:24.7 18:34/M
1087 Christina Sanders Dixon Hughes Goodman LLP 346 31 F 113 30-34 57:46.1 59:25.1 18:34/M
1088 Shannon McKay McGill Associates 1153 45 F 63 45-49 57:53.3 1:00:17.4 18:37/M
1089 Kathleen Conner i play 593 24 F 34 20-24 58:02.7 59:25.2 18:40/M
1090 Kenneth Houser i play 595 30 M 77 30-34 58:03.6 59:25.5 18:40/M
1091 Tish Price Aeroflow Healthcare, Inc. 3 59 F 32 55-59 58:13.1 1:00:23.7 18:43/M
1092 Gretchen Heacock Mission Health 762 31 F 114 30-34 58:19.0 1:00:28.0 18:45/M
1093 Anna Walz Mission Health 764 38 F 89 35-39 58:19.1 1:00:27.7 18:45/M
1094 Margaret Jones 1357 20 F 35 20-24 58:20.0 1:00:28.3 18:45/M
1095 John Walther genova diagnostics 524 26 M 71 25-29 58:22.2 1:00:20.1 18:46/M
1096 Meagan Mintz Mission Health System 779 29 F 111 25-29 58:22.4 59:52.0 18:46/M
1097 Rebecca Grandy Mountain Area Health Education 845 31 F 115 30-34 58:25.6 1:01:39.7 18:47/M
1098 Irene Park Mountain Area Health Education 847 27 F 112 25-29 58:26.7 1:01:40.3 18:47/M
1099 Courtenay Wilson Mountain Area Health Education 848 32 F 116 30-34 58:28.7 1:01:40.5 18:48/M
1100 Hortensia Castillo genova diagnostics 521 48 F 64 45-49 58:29.7 1:00:24.5 18:48/M
 
Place Name COMPANY Bib No Age Gender Age Group Chip Time Gun Time Pace
1101 Alexis Simuel Mountain Area Health Education 828 29 F 113 25-29 58:38.0 1:00:52.6 18:51/M
1102 Allison Schmidt Biltmore Estate / The Biltmore 116 31 F 117 30-34 58:38.9 1:00:41.2 18:51/M
1103 Trina Massingill Biltmore Estate / The Biltmore 115 37 F 90 35-39 58:39.2 1:00:41.7 18:52/M
1104 Amanda Law Biltmore Estate / The Biltmore 114 32 F 118 30-34 58:39.6 1:00:42.1 18:52/M
1105 Martin Weimann Deltec Homes 1196 44 M 75 40-44 58:42.2 58:57.1 18:52/M
1106 Sara Naff-Mio Mountain Area Health Education 814 45 F 65 45-49 58:42.7 1:01:55.9 18:52/M
1107 Lisa Reed Mountain Area Health Education 812 32 F 119 30-34 58:46.8 1:01:55.3 18:54/M
1108 Adrianne Weir MAHEC 1220 53 F 37 50-54 58:51.9 1:05:35.8 18:55/M
1109 Heidi Knoll Mountain Area Health Education 813 31 F 120 30-34 58:52.5 1:02:08.0 18:56/M
1110 Nick Llamas Deltec Homes 1150 38 M 87 35-39 58:57.1 58:57.1 18:57/M
1111 Ginger Poulton Mountain Area Health Education 811 33 F 121 30-34 58:59.5 1:02:05.8 18:58/M
1112 Leah Mayberry Johnson Price Sprinkle PA 632 38 F 91 35-39 58:59.9 1:01:06.1 18:58/M
1113 Terri Orange City of Asheville 276 48 F 66 45-49 59:02.8 1:00:40.3 18:59/M
1114 Kristen Bernero Mountain Area Health Education 793 51 F 38 50-54 59:03.0 59:23.9 18:59/M
1115 Amanda Buckner City of Asheville 273 23 F 36 20-24 59:04.0 1:00:40.3 19:00/M
1116 Jennifer Wallin Aeroflow Healthcare, Inc. 8 33 F 122 30-34 59:14.7 1:00:24.6 19:03/M
1117 Nicole Darity Mountain Area Health Education 826 30 F 123 30-34 59:16.5 1:01:28.8 19:03/M
1118 Brittney Watkins i play 580 27 F 114 25-29 59:20.7 1:01:43.6 19:05/M
1119 Shelia Snyder Bonar Inc 179 49 F 67 45-49 59:23.8 1:01:25.2 19:06/M
1120 Bekah Hankley Blue Ridge Bone & Joint Clinic 161 19 F 8 15-19 59:24.2 59:59.4 19:06/M
1121 Lori Thompsen Bonar Inc 180 48 F 68 45-49 59:24.8 1:01:25.5 19:06/M
1122 Vernon Colla City of Asheville 235 42 M 76 40-44 59:25.9 1:00:34.9 19:06/M
1123 4REGSTAG6 4REDSTAG6 The Grand Bohemian Hotel 1016 0 M 7 0- 0 59:28.7 1:01:00.5 19:07/M
1124 Beth Everett Zealandia Holding Company 1107 29 F 115 25-29 59:32.6 1:01:34.6 19:09/M
1125 Courtney Guest Zealandia Holding Company 1108 25 F 116 25-29 59:33.3 1:01:35.4 19:09/M
1126 Alex Piper Johnson Price Sprinkle PA 671 6 M 3 1- 9 59:33.7 1:01:29.0 19:09/M
1127 Lindsey Bnadad Zealandia Holding Company 1111 32 F 124 30-34 59:33.8 1:01:34.9 19:09/M
1128 Liz Brinn Zealandia Holding Company 1112 47 F 69 45-49 59:34.8 1:01:35.8 19:09/M
1129 Annissa Piper Johnson Price Sprinkle PA 698 43 F 69 40-44 59:35.2 1:01:30.3 19:10/M
1130 Elleveve Donahue Zealandia Holding Company 1106 33 F 125 30-34 59:35.7 1:01:36.1 19:10/M
1131 Darlene Carter Mountain Area Health Education 825 47 F 70 45-49 59:38.8 1:01:53.2 19:10/M
1132 Deanna Christoforou Express Employment Professiona 433 23 F 37 20-24 59:43.7 1:02:01.4 19:12/M
1133 Tara Jones Express Employment Professiona 434 32 F 126 30-34 59:44.8 1:02:02.7 19:12/M
1134 April Walker Express Employment Professiona 436 43 F 70 40-44 59:48.5 1:02:02.7 19:14/M
1135 Vincent Johnson J.Crew 621 53 M 41 50-54 1:00:02.3 1:00:29.9 19:18/M
1136 Lisa Keiber Mountain Area Health Education 791 43 F 71 40-44 1:00:04.4 1:00:25.2 19:19/M
1137 Ellie Schwarz Luella's Bar-B-Que 1227 0 F 8 0- 0 1:00:04.6 1:00:44.2 19:19/M
1138 Victor Ray Electronic Office 427 40 M 77 40-44 1:00:06.2 1:01:06.0 19:19/M
1139 Glen Welch Electronic Office 428 33 M 78 30-34 1:00:07.2 1:01:06.4 19:20/M
1140 Monica Strickland Biltmore Estate / The Biltmore 147 56 F 33 55-59 1:00:07.4 1:01:51.5 19:20/M
1141 Jane Doe Luella's Bar-B-Que 1233 38 F 92 35-39 1:00:07.5 1:00:45.9 19:20/M
1142 Kevin Davis Biltmore Estate / The Biltmore 146 46 M 44 45-49 1:00:07.7 1:01:52.0 19:20/M
1143 Robert Schwarz Luella's Bar-B-Que 1228 40 M 78 40-44 1:00:16.7 1:00:55.0 19:23/M
1144 Diana Gwaltney Johnson Price Sprinkle PA 673 54 F 39 50-54 1:00:16.8 1:02:06.2 19:23/M
1145 Linette Sieben City of Asheville 259 41 F 72 40-44 1:00:16.9 1:01:34.0 19:23/M
1146 Ashley Miller Luella's Bar-B-Que 1225 31 F 127 30-34 1:00:18.7 1:00:57.5 19:23/M
1147 Jamie Cagle City of Asheville 258 38 F 93 35-39 1:00:20.2 1:01:37.0 19:24/M
1148 D'Ann Ford Carolina Mountain Sales 209 50 F 40 50-54 1:00:21.1 1:01:22.8 19:24/M
1149 Kim Pack Carolina Mountain Sales, A Wil 215 31 F 128 30-34 1:00:23.0 1:01:25.5 19:25/M
1150 Ashley Cates Tonsofrentals.com 1025 28 F 117 25-29 1:00:23.7 1:03:39.6 19:25/M
1151 Tara Altman PLI 909 37 F 94 35-39 1:00:31.8 1:01:16.9 19:28/M
1152 Stefani Walker PLI 912 21 F 38 20-24 1:00:32.3 1:01:17.2 19:28/M
1153 Scott Wilkinson Carolina Mountain Sales, A Wil 216 47 M 45 45-49 1:00:35.1 1:01:39.3 19:29/M
1154 Patty Woolf Carolina Mountain Sales 212 50 F 41 50-54 1:00:35.3 1:01:37.8 19:29/M
1155 Tracy McCormack Carolina Mountain Sales, A Wil 214 44 F 73 40-44 1:00:37.2 1:01:38.8 19:29/M
1156 Heather Ferguson PLI 938 39 F 95 35-39 1:00:37.3 1:02:56.8 19:29/M
1157 Jessica Loizzo Mosaix Group 784 24 F 39 20-24 1:00:41.5 1:02:56.7 19:31/M
1158 Sam Powers City of Asheville 288 59 M 27 55-59 1:00:45.5 1:02:02.7 19:32/M
1159 Ema Murphy Mosaix Group 785 33 F 129 30-34 1:00:46.5 1:03:02.0 19:32/M
1160 Stephanie Monson Dahl City of Asheville 287 43 F 74 40-44 1:00:47.1 1:02:03.2 19:33/M
1161 Jenna Williams Mosaix Group 788 22 F 40 20-24 1:00:47.5 1:03:02.9 19:33/M
1162 Ashley Chapman PLI 910 31 F 130 30-34 1:00:55.5 1:01:38.4 19:35/M
1163 Jon Fillman City of Asheville 286 46 M 46 45-49 1:00:55.9 1:02:13.0 19:35/M
1164 Kristina Raesemann Tonsofrentals.com 1027 39 F 96 35-39 1:00:57.2 1:04:19.2 19:36/M
1165 Darcie Kolar PLI 918 63 F 15 60-64 1:01:00.1 1:03:18.2 19:37/M
1166 Hayley Baer 1028 21 F 41 20-24 1:01:05.3 1:04:22.3 19:38/M
1167 Bru Weber FLS Energy 476 33 F 131 30-34 1:01:07.0 1:02:39.2 19:39/M
1168 Amy Soper FLS Energy 474 60 F 16 60-64 1:01:38.5 1:02:39.2 19:49/M
1169 Pam Rose MAHEC 1208 64 F 17 60-64 1:01:45.1 1:05:09.2 19:51/M
1170 Jackie Quayle MAHEC 1255 50 F 42 50-54 1:01:45.4 1:05:09.3 19:51/M
1171 Randi Sacrison Mountain Physical Therapy 862 34 F 132 30-34 1:01:51.9 1:03:25.2 19:53/M
1172 Libby Nelson The Givens Estates. Inc. 975 29 F 118 25-29 1:01:53.5 1:04:22.7 19:54/M
1173 Talene Dadian Biltmore Estate / The Biltmore 110 20 F 42 20-24 1:02:05.9 1:03:41.6 19:58/M
1174 Amy Staton The Givens Estates. Inc. 976 45 F 71 45-49 1:02:07.8 1:04:36.6 19:58/M
1175 Christian Grunder The Givens Estates. Inc. 973 30 F 133 30-34 1:02:08.6 1:04:36.3 19:59/M
1176 Amy Mohl Biltmore Estate / The Biltmore 106 35 F 97 35-39 1:02:09.2 1:03:43.3 19:59/M
1177 Gwen Godbold City of Asheville 236 52 F 43 50-54 1:02:27.3 1:03:36.9 20:05/M
1178 Joann Naeger 1297 70 F 3 70-74 1:02:38.7 1:04:58.4 20:08/M
1179 Michael Thompson 1314 57 M 28 55-59 1:02:39.3 1:04:58.3 20:09/M
1180 Jodie Tissot Mountain Physical Therapy 864 41 F 75 40-44 1:02:46.7 1:04:33.7 20:11/M
1181 Doug Milch 1382 65 M 5 65-69 1:02:52.0 1:04:04.6 20:13/M
1182 Gretchen Lawrence 1371 34 F 134 30-34 1:02:54.1 1:04:06.3 20:14/M
1183 Charlene Quintana Johnson Price Sprinkle PA 656 30 F 135 30-34 1:02:56.5 1:07:42.8 20:14/M
1184 Laurie Brokaw 1342 54 F 44 50-54 1:03:09.2 1:03:37.7 20:18/M
1185 Joan Sharpe Biltmore Estate / The Biltmore 104 53 F 45 50-54 1:03:25.2 1:04:37.8 20:23/M
1186 Brooke Jacoby Biltmore Estate / The Biltmore 103 37 F 98 35-39 1:03:25.6 1:04:37.6 20:23/M
1187 Brian Hutchinson Johnson Price Sprinkle PA 658 39 M 88 35-39 1:03:25.7 1:08:00.3 20:23/M
1188 Robin Parker PLI 924 29 F 119 25-29 1:03:52.3 1:05:03.2 20:32/M
1189 Veronica Worley Mountain Area Health Education 800 38 F 99 35-39 1:03:54.0 1:05:00.3 20:33/M
1190 Brenda Mills City of Asheville 263 52 F 46 50-54 1:04:01.0 1:05:56.4 20:35/M
1191 Christiana Tugman City of Asheville 264 48 F 72 45-49 1:04:01.5 1:05:54.8 20:35/M
1192 Christy Edwards City of Asheville 261 40 F 76 40-44 1:04:01.6 1:05:54.8 20:35/M
1193 Amber Downs Eaton Corporation 415 23 F 43 20-24 1:04:36.3 1:11:21.6 20:46/M
1194 Kelly Owen Webb Insurance 1063 55 F 34 55-59 1:04:37.9 1:05:06.8 20:47/M
1195 Mary Case Eaton Corporation 414 32 F 136 30-34 1:04:38.9 1:11:25.2 20:47/M
1196 Ashley Riddle Eaton Corporation 416 25 F 120 25-29 1:04:39.1 1:11:23.1 20:47/M
1197 Erica Rahn Doctor Directory 376 38 F 100 35-39 1:04:39.3 1:06:57.1 20:47/M
1198 Michael Manning First Bank 446 25 M 72 25-29 1:05:16.0 1:07:36.7 20:59/M
1199 Diane Vazquez Express Employment Professiona 435 39 F 101 35-39 1:05:56.2 1:08:13.5 21:12/M
1200 Meredith Campbell Express Employment Professiona 1124 32 F 137 30-34 1:06:00.4 1:08:13.2 21:13/M
 
Place Name COMPANY Bib No Age Gender Age Group Chip Time Gun Time Pace
1201 Tina Ramsey HomeTrust Bank 563 39 F 102 35-39 1:06:01.7 1:08:10.2 21:14/M
1202 Traci Wilson HomeTrust Bank 564 43 F 77 40-44 1:06:02.1 1:08:10.8 21:14/M
1203 Cheryl McKenzie Express Employment Professiona 1154 49 F 73 45-49 1:06:02.8 1:08:16.2 21:14/M
1204 Sabrina Hennemeier First Bank 443 26 F 121 25-29 1:06:12.4 1:07:41.8 21:17/M
1205 Michael Abbas Mountain Physical Therapy 861 44 M 79 40-44 1:06:12.5 1:07:58.1 21:17/M
1206 Linda Deaton First Bank 442 45 F 74 45-49 1:06:13.4 1:07:41.6 21:17/M
1207 Shamira Gaskins genova diagnostics 503 31 F 138 30-34 1:06:14.2 1:08:10.3 21:18/M
1208 Tamara Miller genova diagnostics 523 30 F 139 30-34 1:06:15.2 1:08:11.5 21:18/M
1209 Codi Justice Johnson Price Sprinkle PA 674 23 F 44 20-24 1:06:16.0 1:08:05.6 21:18/M
1210 Jeff Bryson Johnson Price Sprinkle PA 638 46 M 47 45-49 1:06:16.4 1:08:05.7 21:18/M
1211 Ashley Bryson Johnson Price Sprinkle PA 637 35 F 103 35-39 1:06:17.0 1:08:05.3 21:19/M
1212 Carlyn Rich The Givens Estates. Inc. 991 63 F 18 60-64 1:06:51.1 1:08:19.2 21:30/M
1213 Patrick Westmorland Johnson Price Sprinkle PA 664 8 M 4 1- 9 1:06:57.7 1:08:45.2 21:32/M
1214 Neal Westmorland Johnson Price Sprinkle PA 663 41 M 80 40-44 1:06:58.2 1:08:45.2 21:32/M
1215 Detria Greene The Givens Estates. Inc. 986 61 F 19 60-64 1:07:04.8 1:08:19.4 21:34/M
1216 Boone Conner MAHEC 1209 F 9 0- 0 1:07:19.2 1:07:43.8 21:39/M
1217 Kim Palmer MAHEC 1211 43 F 78 40-44 1:07:19.5 1:07:43.5 21:39/M
1218 Monica Israel Webb Insurance 1062 43 F 79 40-44 1:07:20.1 1:08:01.4 21:39/M
1219 Dawn Frizzell Webb Insurance 1061 47 F 75 45-49 1:07:21.2 1:08:02.1 21:39/M
1220 Deb Scroggins Linamar 734 56 F 35 55-59 1:07:33.4 1:09:33.0 21:43/M
1221 Joanne Edgerton MAHEC 1210 61 F 20 60-64 1:07:34.2 1:07:59.7 21:44/M
1222 Kelly Shields Linamar 735 36 F 104 35-39 1:07:34.9 1:09:33.9 21:44/M
1223 Miriam Ganulin MAHEC 1253 56 F 36 55-59 1:07:53.9 1:11:39.4 21:50/M
1224 Stephanie Dennard MAHEC 1246 41 F 80 40-44 1:08:01.0 1:11:26.5 21:52/M
1225 Nikkia Jackson genova diagnostics 504 32 F 140 30-34 1:08:15.8 1:08:15.8 21:57/M
1226 Melissa Haynes Doctor Directory 369 45 F 76 45-49 1:08:23.9 1:08:52.1 21:59/M
1227 Marsha Hefner First Bank 450 53 F 47 50-54 1:09:19.6 1:10:49.7 22:17/M
1228 Shaleena Simpson PLI 916 44 F 81 40-44 1:09:19.8 1:11:36.5 22:17/M
1229 Elise Honeycutt First Bank 445 25 F 122 25-29 1:09:20.9 1:10:50.5 22:18/M
1230 Maylee Sholar PLI 915 38 F 105 35-39 1:09:26.8 1:11:43.0 22:20/M
1231 Karla Gay Mosaix Group 782 49 F 77 45-49 1:28:43.1 1:31:00.0 28:32/M
1232 Jacquelyn Hallum Mountain Area Health Education 789 60 F 21 60-64 1:28:59.9 1:31:00.0 28:37/M
1233 Sherri Michaleski Mountain Area Health Education 801 47 F 78 45-49 1:57:18.2 1:57:18.2 37:43/M
1234 Diana Rivadeneira Mountain Area Health Education 802 29 F 123 25-29 1:57:18.2 1:57:18.2 37:43/M
1235 Lindsey Roberts Mountain Area Health Education 803 31 F 141 30-34 1:57:18.3 1:57:18.3 37:43/M
1236 Brenda Watt Mountain Area Health Education 804 41 F 82 40-44 1:57:18.4 1:57:18.4 37:43/M
1237 Gayla Aubrianne Guy Mountain Area Health Education 806 27 F 124 25-29 1:57:18.5 1:57:18.5 37:43/M